<?xml version="1.0" encoding="UTF-8" standalone="no" ?>
<gpx xmlns="http://www.topografix.com/GPX/1/1" xmlns:xsi="http://www.w3.org/2001/XMLSchema-instance" xsi:schemaLocation="http://www.topografix.com/GPX/1/1 http://www.topografix.com/GPX/1/1/gpx.xsd" version="1.1" creator="VisuGPX - https://www.visugpx.com">
  <metadata>
    <name>Corne de Lesse - Egimont</name>
    <desc><![CDATA[Tour De la Corne de Lesse .... (La BOURGONCE)]]></desc>
  </metadata>
  <trk>
    <name><![CDATA[09-JAN-16 03:34:35 PM]]></name>
    <trkseg>
      <trkpt lat="48.29872" lon="6.81468">
        <ele>431.77</ele>
        <time>2016-01-09T13:14:06Z</time>
      </trkpt>
      <trkpt lat="48.29872" lon="6.81468">
        <ele>428.89</ele>
        <time>2016-01-09T13:14:07Z</time>
      </trkpt>
      <trkpt lat="48.29872" lon="6.81468">
        <ele>431.77</ele>
        <time>2016-01-09T13:14:08Z</time>
      </trkpt>
      <trkpt lat="48.29873" lon="6.81467">
        <ele>431.77</ele>
        <time>2016-01-09T13:14:17Z</time>
      </trkpt>
      <trkpt lat="48.29873" lon="6.81465">
        <ele>431.77</ele>
        <time>2016-01-09T13:14:18Z</time>
      </trkpt>
      <trkpt lat="48.29871" lon="6.81453">
        <ele>431.77</ele>
        <time>2016-01-09T13:14:29Z</time>
      </trkpt>
      <trkpt lat="48.29874" lon="6.81447">
        <ele>431.29</ele>
        <time>2016-01-09T13:14:33Z</time>
      </trkpt>
      <trkpt lat="48.29891" lon="6.81415">
        <ele>431.29</ele>
        <time>2016-01-09T13:14:49Z</time>
      </trkpt>
      <trkpt lat="48.29898" lon="6.81403">
        <ele>431.77</ele>
        <time>2016-01-09T13:15:03Z</time>
      </trkpt>
      <trkpt lat="48.2991" lon="6.81371">
        <ele>430.81</ele>
        <time>2016-01-09T13:15:17Z</time>
      </trkpt>
      <trkpt lat="48.29924" lon="6.81348">
        <ele>432.25</ele>
        <time>2016-01-09T13:15:31Z</time>
      </trkpt>
      <trkpt lat="48.29942" lon="6.81321">
        <ele>432.73</ele>
        <time>2016-01-09T13:15:47Z</time>
      </trkpt>
      <trkpt lat="48.2995" lon="6.81294">
        <ele>433.21</ele>
        <time>2016-01-09T13:16:02Z</time>
      </trkpt>
      <trkpt lat="48.29951" lon="6.81289">
        <ele>432.73</ele>
        <time>2016-01-09T13:16:04Z</time>
      </trkpt>
      <trkpt lat="48.29952" lon="6.81286">
        <ele>433.21</ele>
        <time>2016-01-09T13:16:05Z</time>
      </trkpt>
      <trkpt lat="48.29952" lon="6.81284">
        <ele>432.73</ele>
        <time>2016-01-09T13:16:06Z</time>
      </trkpt>
      <trkpt lat="48.29953" lon="6.81282">
        <ele>432.73</ele>
        <time>2016-01-09T13:16:07Z</time>
      </trkpt>
      <trkpt lat="48.29964" lon="6.81246">
        <ele>431.29</ele>
        <time>2016-01-09T13:16:24Z</time>
      </trkpt>
      <trkpt lat="48.29976" lon="6.81227">
        <ele>428.89</ele>
        <time>2016-01-09T13:16:38Z</time>
      </trkpt>
      <trkpt lat="48.29977" lon="6.81226">
        <ele>428.4</ele>
        <time>2016-01-09T13:16:39Z</time>
      </trkpt>
      <trkpt lat="48.29977" lon="6.8122">
        <ele>428.4</ele>
        <time>2016-01-09T13:16:41Z</time>
      </trkpt>
      <trkpt lat="48.29982" lon="6.81213">
        <ele>427.92</ele>
        <time>2016-01-09T13:16:47Z</time>
      </trkpt>
      <trkpt lat="48.29986" lon="6.81208">
        <ele>428.4</ele>
        <time>2016-01-09T13:16:50Z</time>
      </trkpt>
      <trkpt lat="48.29997" lon="6.81194">
        <ele>427.92</ele>
        <time>2016-01-09T13:17:00Z</time>
      </trkpt>
      <trkpt lat="48.30001" lon="6.81184">
        <ele>426.96</ele>
        <time>2016-01-09T13:17:05Z</time>
      </trkpt>
      <trkpt lat="48.30001" lon="6.81164">
        <ele>426</ele>
        <time>2016-01-09T13:17:19Z</time>
      </trkpt>
      <trkpt lat="48.30005" lon="6.81143">
        <ele>424.08</ele>
        <time>2016-01-09T13:17:32Z</time>
      </trkpt>
      <trkpt lat="48.30013" lon="6.81103">
        <ele>423.12</ele>
        <time>2016-01-09T13:17:47Z</time>
      </trkpt>
      <trkpt lat="48.30017" lon="6.81082">
        <ele>422.64</ele>
        <time>2016-01-09T13:17:54Z</time>
      </trkpt>
      <trkpt lat="48.30025" lon="6.81035">
        <ele>420.71</ele>
        <time>2016-01-09T13:18:10Z</time>
      </trkpt>
      <trkpt lat="48.30029" lon="6.81023">
        <ele>419.27</ele>
        <time>2016-01-09T13:18:15Z</time>
      </trkpt>
      <trkpt lat="48.30033" lon="6.81001">
        <ele>417.35</ele>
        <time>2016-01-09T13:18:25Z</time>
      </trkpt>
      <trkpt lat="48.30032" lon="6.8099">
        <ele>418.31</ele>
        <time>2016-01-09T13:18:31Z</time>
      </trkpt>
      <trkpt lat="48.30032" lon="6.80984">
        <ele>417.35</ele>
        <time>2016-01-09T13:18:34Z</time>
      </trkpt>
      <trkpt lat="48.30025" lon="6.80956">
        <ele>417.83</ele>
        <time>2016-01-09T13:18:49Z</time>
      </trkpt>
      <trkpt lat="48.30009" lon="6.8094">
        <ele>419.27</ele>
        <time>2016-01-09T13:19:03Z</time>
      </trkpt>
      <trkpt lat="48.29996" lon="6.80928">
        <ele>420.71</ele>
        <time>2016-01-09T13:19:12Z</time>
      </trkpt>
      <trkpt lat="48.2999" lon="6.8092">
        <ele>420.23</ele>
        <time>2016-01-09T13:19:17Z</time>
      </trkpt>
      <trkpt lat="48.29973" lon="6.80913">
        <ele>422.16</ele>
        <time>2016-01-09T13:19:30Z</time>
      </trkpt>
      <trkpt lat="48.29962" lon="6.80908">
        <ele>422.64</ele>
        <time>2016-01-09T13:19:38Z</time>
      </trkpt>
      <trkpt lat="48.29953" lon="6.80905">
        <ele>423.12</ele>
        <time>2016-01-09T13:19:43Z</time>
      </trkpt>
      <trkpt lat="48.29931" lon="6.809">
        <ele>423.12</ele>
        <time>2016-01-09T13:19:58Z</time>
      </trkpt>
      <trkpt lat="48.29925" lon="6.80897">
        <ele>422.64</ele>
        <time>2016-01-09T13:20:03Z</time>
      </trkpt>
      <trkpt lat="48.29912" lon="6.80895">
        <ele>421.19</ele>
        <time>2016-01-09T13:20:11Z</time>
      </trkpt>
      <trkpt lat="48.29897" lon="6.80895">
        <ele>419.75</ele>
        <time>2016-01-09T13:20:19Z</time>
      </trkpt>
      <trkpt lat="48.29872" lon="6.80901">
        <ele>417.35</ele>
        <time>2016-01-09T13:20:34Z</time>
      </trkpt>
      <trkpt lat="48.2987" lon="6.809">
        <ele>417.35</ele>
        <time>2016-01-09T13:20:36Z</time>
      </trkpt>
      <trkpt lat="48.29861" lon="6.80901">
        <ele>416.87</ele>
        <time>2016-01-09T13:20:44Z</time>
      </trkpt>
      <trkpt lat="48.29837" lon="6.80908">
        <ele>417.83</ele>
        <time>2016-01-09T13:20:58Z</time>
      </trkpt>
      <trkpt lat="48.29821" lon="6.80913">
        <ele>418.31</ele>
        <time>2016-01-09T13:21:10Z</time>
      </trkpt>
      <trkpt lat="48.29815" lon="6.8091">
        <ele>418.79</ele>
        <time>2016-01-09T13:21:31Z</time>
      </trkpt>
      <trkpt lat="48.29809" lon="6.80912">
        <ele>418.79</ele>
        <time>2016-01-09T13:21:38Z</time>
      </trkpt>
      <trkpt lat="48.29787" lon="6.80912">
        <ele>419.27</ele>
        <time>2016-01-09T13:21:54Z</time>
      </trkpt>
      <trkpt lat="48.29776" lon="6.80924">
        <ele>421.68</ele>
        <time>2016-01-09T13:22:06Z</time>
      </trkpt>
      <trkpt lat="48.29773" lon="6.80928">
        <ele>422.16</ele>
        <time>2016-01-09T13:22:09Z</time>
      </trkpt>
      <trkpt lat="48.29764" lon="6.8094">
        <ele>425.04</ele>
        <time>2016-01-09T13:22:20Z</time>
      </trkpt>
      <trkpt lat="48.29752" lon="6.80956">
        <ele>426.48</ele>
        <time>2016-01-09T13:22:32Z</time>
      </trkpt>
      <trkpt lat="48.29742" lon="6.80971">
        <ele>426.96</ele>
        <time>2016-01-09T13:22:41Z</time>
      </trkpt>
      <trkpt lat="48.2974" lon="6.80974">
        <ele>426.96</ele>
        <time>2016-01-09T13:22:43Z</time>
      </trkpt>
      <trkpt lat="48.29734" lon="6.8098">
        <ele>426.48</ele>
        <time>2016-01-09T13:22:47Z</time>
      </trkpt>
      <trkpt lat="48.29729" lon="6.80984">
        <ele>422.16</ele>
        <time>2016-01-09T13:22:51Z</time>
      </trkpt>
      <trkpt lat="48.29729" lon="6.80984">
        <ele>426.48</ele>
        <time>2016-01-09T13:22:52Z</time>
      </trkpt>
      <trkpt lat="48.29727" lon="6.80988">
        <ele>422.64</ele>
        <time>2016-01-09T13:22:56Z</time>
      </trkpt>
      <trkpt lat="48.29725" lon="6.8099">
        <ele>424.08</ele>
        <time>2016-01-09T13:23:00Z</time>
      </trkpt>
      <trkpt lat="48.29724" lon="6.80992">
        <ele>424.08</ele>
        <time>2016-01-09T13:23:02Z</time>
      </trkpt>
      <trkpt lat="48.29723" lon="6.80995">
        <ele>423.12</ele>
        <time>2016-01-09T13:23:04Z</time>
      </trkpt>
      <trkpt lat="48.29717" lon="6.81016">
        <ele>424.08</ele>
        <time>2016-01-09T13:23:15Z</time>
      </trkpt>
      <trkpt lat="48.2971" lon="6.81039">
        <ele>426.48</ele>
        <time>2016-01-09T13:23:27Z</time>
      </trkpt>
      <trkpt lat="48.29703" lon="6.8106">
        <ele>429.37</ele>
        <time>2016-01-09T13:23:40Z</time>
      </trkpt>
      <trkpt lat="48.29699" lon="6.81077">
        <ele>431.29</ele>
        <time>2016-01-09T13:23:51Z</time>
      </trkpt>
      <trkpt lat="48.29693" lon="6.81093">
        <ele>432.73</ele>
        <time>2016-01-09T13:24:01Z</time>
      </trkpt>
      <trkpt lat="48.29689" lon="6.81101">
        <ele>433.21</ele>
        <time>2016-01-09T13:24:04Z</time>
      </trkpt>
      <trkpt lat="48.29683" lon="6.81115">
        <ele>435.13</ele>
        <time>2016-01-09T13:24:10Z</time>
      </trkpt>
      <trkpt lat="48.29683" lon="6.81123">
        <ele>435.61</ele>
        <time>2016-01-09T13:24:13Z</time>
      </trkpt>
      <trkpt lat="48.29681" lon="6.81148">
        <ele>438.98</ele>
        <time>2016-01-09T13:24:26Z</time>
      </trkpt>
      <trkpt lat="48.29681" lon="6.8115">
        <ele>438.98</ele>
        <time>2016-01-09T13:24:27Z</time>
      </trkpt>
      <trkpt lat="48.29682" lon="6.81167">
        <ele>441.38</ele>
        <time>2016-01-09T13:24:35Z</time>
      </trkpt>
      <trkpt lat="48.29679" lon="6.81179">
        <ele>443.79</ele>
        <time>2016-01-09T13:24:43Z</time>
      </trkpt>
      <trkpt lat="48.29676" lon="6.81191">
        <ele>446.19</ele>
        <time>2016-01-09T13:24:50Z</time>
      </trkpt>
      <trkpt lat="48.29673" lon="6.81209">
        <ele>447.63</ele>
        <time>2016-01-09T13:25:01Z</time>
      </trkpt>
      <trkpt lat="48.29672" lon="6.81225">
        <ele>450.52</ele>
        <time>2016-01-09T13:25:13Z</time>
      </trkpt>
      <trkpt lat="48.29672" lon="6.81227">
        <ele>450.52</ele>
        <time>2016-01-09T13:25:18Z</time>
      </trkpt>
      <trkpt lat="48.29671" lon="6.81232">
        <ele>447.15</ele>
        <time>2016-01-09T13:25:21Z</time>
      </trkpt>
      <trkpt lat="48.2967" lon="6.81233">
        <ele>451.48</ele>
        <time>2016-01-09T13:25:22Z</time>
      </trkpt>
      <trkpt lat="48.29666" lon="6.81241">
        <ele>451.96</ele>
        <time>2016-01-09T13:25:29Z</time>
      </trkpt>
      <trkpt lat="48.29662" lon="6.81254">
        <ele>450.03</ele>
        <time>2016-01-09T13:25:41Z</time>
      </trkpt>
      <trkpt lat="48.29661" lon="6.81254">
        <ele>453.88</ele>
        <time>2016-01-09T13:25:42Z</time>
      </trkpt>
      <trkpt lat="48.29661" lon="6.81254">
        <ele>450.52</ele>
        <time>2016-01-09T13:25:44Z</time>
      </trkpt>
      <trkpt lat="48.29661" lon="6.81254">
        <ele>451</ele>
        <time>2016-01-09T13:25:45Z</time>
      </trkpt>
      <trkpt lat="48.29655" lon="6.81273">
        <ele>454.36</ele>
        <time>2016-01-09T13:26:00Z</time>
      </trkpt>
      <trkpt lat="48.29653" lon="6.81276">
        <ele>451</ele>
        <time>2016-01-09T13:26:03Z</time>
      </trkpt>
      <trkpt lat="48.29653" lon="6.81276">
        <ele>457.24</ele>
        <time>2016-01-09T13:26:04Z</time>
      </trkpt>
      <trkpt lat="48.29651" lon="6.81279">
        <ele>453.88</ele>
        <time>2016-01-09T13:26:06Z</time>
      </trkpt>
      <trkpt lat="48.29651" lon="6.81279">
        <ele>448.11</ele>
        <time>2016-01-09T13:26:07Z</time>
      </trkpt>
      <trkpt lat="48.29651" lon="6.81279">
        <ele>454.36</ele>
        <time>2016-01-09T13:26:08Z</time>
      </trkpt>
      <trkpt lat="48.29643" lon="6.81293">
        <ele>455.32</ele>
        <time>2016-01-09T13:26:23Z</time>
      </trkpt>
      <trkpt lat="48.29644" lon="6.81296">
        <ele>455.8</ele>
        <time>2016-01-09T13:26:37Z</time>
      </trkpt>
      <trkpt lat="48.29635" lon="6.81293">
        <ele>457.72</ele>
        <time>2016-01-09T13:26:53Z</time>
      </trkpt>
      <trkpt lat="48.2963" lon="6.81281">
        <ele>458.69</ele>
        <time>2016-01-09T13:27:00Z</time>
      </trkpt>
      <trkpt lat="48.29621" lon="6.81265">
        <ele>457.24</ele>
        <time>2016-01-09T13:27:12Z</time>
      </trkpt>
      <trkpt lat="48.2962" lon="6.81255">
        <ele>456.28</ele>
        <time>2016-01-09T13:27:16Z</time>
      </trkpt>
      <trkpt lat="48.29609" lon="6.81221">
        <ele>455.32</ele>
        <time>2016-01-09T13:27:30Z</time>
      </trkpt>
      <trkpt lat="48.29605" lon="6.81211">
        <ele>454.84</ele>
        <time>2016-01-09T13:27:36Z</time>
      </trkpt>
      <trkpt lat="48.29602" lon="6.81205">
        <ele>455.32</ele>
        <time>2016-01-09T13:27:40Z</time>
      </trkpt>
      <trkpt lat="48.29596" lon="6.81183">
        <ele>454.36</ele>
        <time>2016-01-09T13:27:51Z</time>
      </trkpt>
      <trkpt lat="48.29595" lon="6.81178">
        <ele>453.88</ele>
        <time>2016-01-09T13:27:53Z</time>
      </trkpt>
      <trkpt lat="48.29594" lon="6.81171">
        <ele>453.4</ele>
        <time>2016-01-09T13:27:56Z</time>
      </trkpt>
      <trkpt lat="48.29593" lon="6.81165">
        <ele>453.4</ele>
        <time>2016-01-09T13:27:59Z</time>
      </trkpt>
      <trkpt lat="48.29591" lon="6.81155">
        <ele>451.96</ele>
        <time>2016-01-09T13:28:07Z</time>
      </trkpt>
      <trkpt lat="48.29589" lon="6.81146">
        <ele>451.48</ele>
        <time>2016-01-09T13:28:12Z</time>
      </trkpt>
      <trkpt lat="48.29587" lon="6.81139">
        <ele>451.48</ele>
        <time>2016-01-09T13:28:15Z</time>
      </trkpt>
      <trkpt lat="48.29585" lon="6.81123">
        <ele>450.03</ele>
        <time>2016-01-09T13:28:23Z</time>
      </trkpt>
      <trkpt lat="48.29581" lon="6.81102">
        <ele>448.59</ele>
        <time>2016-01-09T13:28:34Z</time>
      </trkpt>
      <trkpt lat="48.2958" lon="6.81093">
        <ele>447.15</ele>
        <time>2016-01-09T13:28:40Z</time>
      </trkpt>
      <trkpt lat="48.29576" lon="6.81065">
        <ele>445.71</ele>
        <time>2016-01-09T13:28:56Z</time>
      </trkpt>
      <trkpt lat="48.29584" lon="6.81048">
        <ele>442.34</ele>
        <time>2016-01-09T13:29:07Z</time>
      </trkpt>
      <trkpt lat="48.29587" lon="6.81043">
        <ele>440.9</ele>
        <time>2016-01-09T13:29:12Z</time>
      </trkpt>
      <trkpt lat="48.29589" lon="6.81039">
        <ele>440.42</ele>
        <time>2016-01-09T13:29:15Z</time>
      </trkpt>
      <trkpt lat="48.29591" lon="6.8103">
        <ele>438.5</ele>
        <time>2016-01-09T13:29:19Z</time>
      </trkpt>
      <trkpt lat="48.29593" lon="6.81012">
        <ele>439.94</ele>
        <time>2016-01-09T13:29:33Z</time>
      </trkpt>
      <trkpt lat="48.29594" lon="6.81006">
        <ele>438.98</ele>
        <time>2016-01-09T13:29:36Z</time>
      </trkpt>
      <trkpt lat="48.29594" lon="6.81">
        <ele>438.98</ele>
        <time>2016-01-09T13:29:39Z</time>
      </trkpt>
      <trkpt lat="48.29599" lon="6.80967">
        <ele>436.58</ele>
        <time>2016-01-09T13:29:55Z</time>
      </trkpt>
      <trkpt lat="48.29601" lon="6.80961">
        <ele>436.58</ele>
        <time>2016-01-09T13:30:01Z</time>
      </trkpt>
      <trkpt lat="48.29608" lon="6.8093">
        <ele>435.13</ele>
        <time>2016-01-09T13:30:16Z</time>
      </trkpt>
      <trkpt lat="48.29617" lon="6.80906">
        <ele>433.21</ele>
        <time>2016-01-09T13:30:30Z</time>
      </trkpt>
      <trkpt lat="48.29618" lon="6.80884">
        <ele>433.69</ele>
        <time>2016-01-09T13:30:39Z</time>
      </trkpt>
      <trkpt lat="48.29624" lon="6.80854">
        <ele>432.25</ele>
        <time>2016-01-09T13:30:54Z</time>
      </trkpt>
      <trkpt lat="48.29631" lon="6.8082">
        <ele>433.21</ele>
        <time>2016-01-09T13:31:09Z</time>
      </trkpt>
      <trkpt lat="48.29633" lon="6.8081">
        <ele>435.13</ele>
        <time>2016-01-09T13:31:13Z</time>
      </trkpt>
      <trkpt lat="48.29642" lon="6.80776">
        <ele>436.58</ele>
        <time>2016-01-09T13:31:28Z</time>
      </trkpt>
      <trkpt lat="48.29642" lon="6.80774">
        <ele>436.58</ele>
        <time>2016-01-09T13:31:29Z</time>
      </trkpt>
      <trkpt lat="48.29643" lon="6.80757">
        <ele>436.58</ele>
        <time>2016-01-09T13:31:40Z</time>
      </trkpt>
      <trkpt lat="48.29633" lon="6.80731">
        <ele>436.1</ele>
        <time>2016-01-09T13:31:54Z</time>
      </trkpt>
      <trkpt lat="48.29627" lon="6.80723">
        <ele>437.06</ele>
        <time>2016-01-09T13:32:04Z</time>
      </trkpt>
      <trkpt lat="48.29624" lon="6.80718">
        <ele>436.58</ele>
        <time>2016-01-09T13:32:07Z</time>
      </trkpt>
      <trkpt lat="48.29615" lon="6.8071">
        <ele>436.1</ele>
        <time>2016-01-09T13:32:17Z</time>
      </trkpt>
      <trkpt lat="48.29612" lon="6.80707">
        <ele>436.1</ele>
        <time>2016-01-09T13:32:20Z</time>
      </trkpt>
      <trkpt lat="48.2961" lon="6.807">
        <ele>436.1</ele>
        <time>2016-01-09T13:32:34Z</time>
      </trkpt>
      <trkpt lat="48.2961" lon="6.807">
        <ele>436.1</ele>
        <time>2016-01-09T13:32:35Z</time>
      </trkpt>
      <trkpt lat="48.29608" lon="6.80699">
        <ele>436.1</ele>
        <time>2016-01-09T13:32:38Z</time>
      </trkpt>
      <trkpt lat="48.29601" lon="6.80697">
        <ele>436.1</ele>
        <time>2016-01-09T13:32:51Z</time>
      </trkpt>
      <trkpt lat="48.29602" lon="6.80699">
        <ele>436.1</ele>
        <time>2016-01-09T13:33:01Z</time>
      </trkpt>
      <trkpt lat="48.29592" lon="6.807">
        <ele>435.61</ele>
        <time>2016-01-09T13:33:09Z</time>
      </trkpt>
      <trkpt lat="48.29576" lon="6.80708">
        <ele>435.61</ele>
        <time>2016-01-09T13:33:22Z</time>
      </trkpt>
      <trkpt lat="48.29575" lon="6.80709">
        <ele>435.13</ele>
        <time>2016-01-09T13:33:23Z</time>
      </trkpt>
      <trkpt lat="48.29564" lon="6.80719">
        <ele>434.65</ele>
        <time>2016-01-09T13:33:35Z</time>
      </trkpt>
      <trkpt lat="48.29559" lon="6.80729">
        <ele>435.13</ele>
        <time>2016-01-09T13:33:47Z</time>
      </trkpt>
      <trkpt lat="48.29562" lon="6.80737">
        <ele>434.65</ele>
        <time>2016-01-09T13:33:58Z</time>
      </trkpt>
      <trkpt lat="48.29558" lon="6.80755">
        <ele>434.65</ele>
        <time>2016-01-09T13:34:11Z</time>
      </trkpt>
      <trkpt lat="48.29552" lon="6.80773">
        <ele>434.65</ele>
        <time>2016-01-09T13:34:22Z</time>
      </trkpt>
      <trkpt lat="48.29538" lon="6.80808">
        <ele>434.65</ele>
        <time>2016-01-09T13:34:31Z</time>
      </trkpt>
      <trkpt lat="48.29522" lon="6.80839">
        <ele>437.06</ele>
        <time>2016-01-09T13:34:39Z</time>
      </trkpt>
      <trkpt lat="48.29519" lon="6.80853">
        <ele>439.94</ele>
        <time>2016-01-09T13:34:46Z</time>
      </trkpt>
      <trkpt lat="48.29516" lon="6.80855">
        <ele>436.58</ele>
        <time>2016-01-09T13:34:48Z</time>
      </trkpt>
      <trkpt lat="48.29509" lon="6.80863">
        <ele>437.54</ele>
        <time>2016-01-09T13:34:55Z</time>
      </trkpt>
      <trkpt lat="48.29508" lon="6.80864">
        <ele>435.13</ele>
        <time>2016-01-09T13:34:57Z</time>
      </trkpt>
      <trkpt lat="48.29506" lon="6.80866">
        <ele>438.98</ele>
        <time>2016-01-09T13:34:59Z</time>
      </trkpt>
      <trkpt lat="48.29501" lon="6.80881">
        <ele>438.02</ele>
        <time>2016-01-09T13:35:08Z</time>
      </trkpt>
      <trkpt lat="48.29496" lon="6.80905">
        <ele>438.98</ele>
        <time>2016-01-09T13:35:20Z</time>
      </trkpt>
      <trkpt lat="48.29491" lon="6.80918">
        <ele>438.98</ele>
        <time>2016-01-09T13:35:26Z</time>
      </trkpt>
      <trkpt lat="48.29477" lon="6.80942">
        <ele>442.34</ele>
        <time>2016-01-09T13:35:40Z</time>
      </trkpt>
      <trkpt lat="48.2947" lon="6.80961">
        <ele>443.31</ele>
        <time>2016-01-09T13:35:52Z</time>
      </trkpt>
      <trkpt lat="48.29468" lon="6.80964">
        <ele>443.79</ele>
        <time>2016-01-09T13:35:54Z</time>
      </trkpt>
      <trkpt lat="48.29465" lon="6.80971">
        <ele>443.79</ele>
        <time>2016-01-09T13:35:57Z</time>
      </trkpt>
      <trkpt lat="48.29457" lon="6.80982">
        <ele>444.75</ele>
        <time>2016-01-09T13:36:04Z</time>
      </trkpt>
      <trkpt lat="48.29436" lon="6.81004">
        <ele>444.75</ele>
        <time>2016-01-09T13:36:19Z</time>
      </trkpt>
      <trkpt lat="48.29435" lon="6.81007">
        <ele>445.71</ele>
        <time>2016-01-09T13:36:21Z</time>
      </trkpt>
      <trkpt lat="48.29422" lon="6.81038">
        <ele>448.11</ele>
        <time>2016-01-09T13:36:38Z</time>
      </trkpt>
      <trkpt lat="48.29415" lon="6.81055">
        <ele>451.48</ele>
        <time>2016-01-09T13:36:49Z</time>
      </trkpt>
      <trkpt lat="48.29411" lon="6.81061">
        <ele>451.96</ele>
        <time>2016-01-09T13:36:53Z</time>
      </trkpt>
      <trkpt lat="48.29409" lon="6.81064">
        <ele>452.44</ele>
        <time>2016-01-09T13:36:55Z</time>
      </trkpt>
      <trkpt lat="48.29401" lon="6.81079">
        <ele>454.84</ele>
        <time>2016-01-09T13:37:06Z</time>
      </trkpt>
      <trkpt lat="48.29395" lon="6.8109">
        <ele>454.36</ele>
        <time>2016-01-09T13:37:12Z</time>
      </trkpt>
      <trkpt lat="48.29388" lon="6.81106">
        <ele>455.32</ele>
        <time>2016-01-09T13:37:24Z</time>
      </trkpt>
      <trkpt lat="48.29381" lon="6.81126">
        <ele>456.76</ele>
        <time>2016-01-09T13:37:35Z</time>
      </trkpt>
      <trkpt lat="48.29375" lon="6.8114">
        <ele>458.69</ele>
        <time>2016-01-09T13:37:43Z</time>
      </trkpt>
      <trkpt lat="48.29361" lon="6.81158">
        <ele>460.13</ele>
        <time>2016-01-09T13:37:56Z</time>
      </trkpt>
      <trkpt lat="48.29357" lon="6.81166">
        <ele>463.49</ele>
        <time>2016-01-09T13:38:04Z</time>
      </trkpt>
      <trkpt lat="48.29349" lon="6.81168">
        <ele>459.65</ele>
        <time>2016-01-09T13:38:16Z</time>
      </trkpt>
      <trkpt lat="48.29349" lon="6.81169">
        <ele>463.01</ele>
        <time>2016-01-09T13:38:18Z</time>
      </trkpt>
      <trkpt lat="48.29349" lon="6.81169">
        <ele>458.69</ele>
        <time>2016-01-09T13:38:20Z</time>
      </trkpt>
      <trkpt lat="48.29349" lon="6.81169">
        <ele>462.53</ele>
        <time>2016-01-09T13:38:21Z</time>
      </trkpt>
      <trkpt lat="48.29349" lon="6.81169">
        <ele>459.17</ele>
        <time>2016-01-09T13:38:24Z</time>
      </trkpt>
      <trkpt lat="48.29349" lon="6.81169">
        <ele>465.9</ele>
        <time>2016-01-09T13:38:25Z</time>
      </trkpt>
      <trkpt lat="48.29349" lon="6.81169">
        <ele>462.53</ele>
        <time>2016-01-09T13:38:26Z</time>
      </trkpt>
      <trkpt lat="48.29349" lon="6.81169">
        <ele>456.76</ele>
        <time>2016-01-09T13:38:27Z</time>
      </trkpt>
      <trkpt lat="48.29349" lon="6.81169">
        <ele>461.57</ele>
        <time>2016-01-09T13:38:28Z</time>
      </trkpt>
      <trkpt lat="48.29349" lon="6.81169">
        <ele>464.93</ele>
        <time>2016-01-09T13:38:31Z</time>
      </trkpt>
      <trkpt lat="48.29349" lon="6.81169">
        <ele>459.17</ele>
        <time>2016-01-09T13:38:34Z</time>
      </trkpt>
      <trkpt lat="48.29349" lon="6.81169">
        <ele>463.49</ele>
        <time>2016-01-09T13:38:35Z</time>
      </trkpt>
      <trkpt lat="48.29348" lon="6.81169">
        <ele>458.21</ele>
        <time>2016-01-09T13:38:39Z</time>
      </trkpt>
      <trkpt lat="48.29348" lon="6.8117">
        <ele>459.65</ele>
        <time>2016-01-09T13:38:40Z</time>
      </trkpt>
      <trkpt lat="48.29348" lon="6.8117">
        <ele>463.49</ele>
        <time>2016-01-09T13:38:41Z</time>
      </trkpt>
      <trkpt lat="48.29348" lon="6.8117">
        <ele>463.49</ele>
        <time>2016-01-09T13:38:42Z</time>
      </trkpt>
      <trkpt lat="48.29348" lon="6.81171">
        <ele>459.17</ele>
        <time>2016-01-09T13:38:47Z</time>
      </trkpt>
      <trkpt lat="48.29348" lon="6.81171">
        <ele>463.97</ele>
        <time>2016-01-09T13:38:48Z</time>
      </trkpt>
      <trkpt lat="48.29347" lon="6.81172">
        <ele>460.61</ele>
        <time>2016-01-09T13:38:54Z</time>
      </trkpt>
      <trkpt lat="48.29347" lon="6.81172">
        <ele>463.49</ele>
        <time>2016-01-09T13:38:55Z</time>
      </trkpt>
      <trkpt lat="48.29347" lon="6.81172">
        <ele>459.65</ele>
        <time>2016-01-09T13:38:56Z</time>
      </trkpt>
      <trkpt lat="48.29347" lon="6.81172">
        <ele>463.97</ele>
        <time>2016-01-09T13:38:59Z</time>
      </trkpt>
      <trkpt lat="48.29347" lon="6.81172">
        <ele>463.49</ele>
        <time>2016-01-09T13:39:00Z</time>
      </trkpt>
      <trkpt lat="48.29341" lon="6.81183">
        <ele>461.57</ele>
        <time>2016-01-09T13:39:14Z</time>
      </trkpt>
      <trkpt lat="48.29332" lon="6.81194">
        <ele>464.45</ele>
        <time>2016-01-09T13:39:25Z</time>
      </trkpt>
      <trkpt lat="48.29329" lon="6.81197">
        <ele>464.93</ele>
        <time>2016-01-09T13:39:28Z</time>
      </trkpt>
      <trkpt lat="48.2932" lon="6.81214">
        <ele>467.34</ele>
        <time>2016-01-09T13:39:40Z</time>
      </trkpt>
      <trkpt lat="48.29318" lon="6.81222">
        <ele>468.3</ele>
        <time>2016-01-09T13:39:44Z</time>
      </trkpt>
      <trkpt lat="48.29313" lon="6.81247">
        <ele>472.14</ele>
        <time>2016-01-09T13:39:55Z</time>
      </trkpt>
      <trkpt lat="48.29309" lon="6.81255">
        <ele>473.59</ele>
        <time>2016-01-09T13:40:01Z</time>
      </trkpt>
      <trkpt lat="48.29301" lon="6.81263">
        <ele>469.26</ele>
        <time>2016-01-09T13:40:10Z</time>
      </trkpt>
      <trkpt lat="48.293" lon="6.81264">
        <ele>473.11</ele>
        <time>2016-01-09T13:40:11Z</time>
      </trkpt>
      <trkpt lat="48.29291" lon="6.81289">
        <ele>473.11</ele>
        <time>2016-01-09T13:40:24Z</time>
      </trkpt>
      <trkpt lat="48.2929" lon="6.81293">
        <ele>473.59</ele>
        <time>2016-01-09T13:40:27Z</time>
      </trkpt>
      <trkpt lat="48.29284" lon="6.81312">
        <ele>477.43</ele>
        <time>2016-01-09T13:40:39Z</time>
      </trkpt>
      <trkpt lat="48.2928" lon="6.81325">
        <ele>479.35</ele>
        <time>2016-01-09T13:40:51Z</time>
      </trkpt>
      <trkpt lat="48.29274" lon="6.81337">
        <ele>480.32</ele>
        <time>2016-01-09T13:40:58Z</time>
      </trkpt>
      <trkpt lat="48.29262" lon="6.81357">
        <ele>479.84</ele>
        <time>2016-01-09T13:41:09Z</time>
      </trkpt>
      <trkpt lat="48.29261" lon="6.81361">
        <ele>479.84</ele>
        <time>2016-01-09T13:41:11Z</time>
      </trkpt>
      <trkpt lat="48.29253" lon="6.81382">
        <ele>481.76</ele>
        <time>2016-01-09T13:41:21Z</time>
      </trkpt>
      <trkpt lat="48.29245" lon="6.81395">
        <ele>482.24</ele>
        <time>2016-01-09T13:41:29Z</time>
      </trkpt>
      <trkpt lat="48.29233" lon="6.81417">
        <ele>484.64</ele>
        <time>2016-01-09T13:41:43Z</time>
      </trkpt>
      <trkpt lat="48.29226" lon="6.81429">
        <ele>486.08</ele>
        <time>2016-01-09T13:41:51Z</time>
      </trkpt>
      <trkpt lat="48.29212" lon="6.81447">
        <ele>489.45</ele>
        <time>2016-01-09T13:42:04Z</time>
      </trkpt>
      <trkpt lat="48.29202" lon="6.81461">
        <ele>492.81</ele>
        <time>2016-01-09T13:42:14Z</time>
      </trkpt>
      <trkpt lat="48.29196" lon="6.81463">
        <ele>493.29</ele>
        <time>2016-01-09T13:42:19Z</time>
      </trkpt>
      <trkpt lat="48.29183" lon="6.81476">
        <ele>495.7</ele>
        <time>2016-01-09T13:42:31Z</time>
      </trkpt>
      <trkpt lat="48.29173" lon="6.81484">
        <ele>495.7</ele>
        <time>2016-01-09T13:42:38Z</time>
      </trkpt>
      <trkpt lat="48.29159" lon="6.81496">
        <ele>499.06</ele>
        <time>2016-01-09T13:42:52Z</time>
      </trkpt>
      <trkpt lat="48.29149" lon="6.81508">
        <ele>500.5</ele>
        <time>2016-01-09T13:43:01Z</time>
      </trkpt>
      <trkpt lat="48.29139" lon="6.8152">
        <ele>501.95</ele>
        <time>2016-01-09T13:43:10Z</time>
      </trkpt>
      <trkpt lat="48.29137" lon="6.81523">
        <ele>502.43</ele>
        <time>2016-01-09T13:43:13Z</time>
      </trkpt>
      <trkpt lat="48.29134" lon="6.81528">
        <ele>503.39</ele>
        <time>2016-01-09T13:43:17Z</time>
      </trkpt>
      <trkpt lat="48.29123" lon="6.81547">
        <ele>505.79</ele>
        <time>2016-01-09T13:43:31Z</time>
      </trkpt>
      <trkpt lat="48.29122" lon="6.81551">
        <ele>505.79</ele>
        <time>2016-01-09T13:43:33Z</time>
      </trkpt>
      <trkpt lat="48.29112" lon="6.81575">
        <ele>507.23</ele>
        <time>2016-01-09T13:43:46Z</time>
      </trkpt>
      <trkpt lat="48.29111" lon="6.81597">
        <ele>508.67</ele>
        <time>2016-01-09T13:43:59Z</time>
      </trkpt>
      <trkpt lat="48.2911" lon="6.81601">
        <ele>509.16</ele>
        <time>2016-01-09T13:44:00Z</time>
      </trkpt>
      <trkpt lat="48.29111" lon="6.81621">
        <ele>510.12</ele>
        <time>2016-01-09T13:44:09Z</time>
      </trkpt>
      <trkpt lat="48.29115" lon="6.81631">
        <ele>509.64</ele>
        <time>2016-01-09T13:44:15Z</time>
      </trkpt>
      <trkpt lat="48.29107" lon="6.81661">
        <ele>510.6</ele>
        <time>2016-01-09T13:44:26Z</time>
      </trkpt>
      <trkpt lat="48.29107" lon="6.8167">
        <ele>510.6</ele>
        <time>2016-01-09T13:44:30Z</time>
      </trkpt>
      <trkpt lat="48.29111" lon="6.8169">
        <ele>510.6</ele>
        <time>2016-01-09T13:44:38Z</time>
      </trkpt>
      <trkpt lat="48.29112" lon="6.81696">
        <ele>511.08</ele>
        <time>2016-01-09T13:44:40Z</time>
      </trkpt>
      <trkpt lat="48.29115" lon="6.81711">
        <ele>511.56</ele>
        <time>2016-01-09T13:44:47Z</time>
      </trkpt>
      <trkpt lat="48.29117" lon="6.81719">
        <ele>512.04</ele>
        <time>2016-01-09T13:44:51Z</time>
      </trkpt>
      <trkpt lat="48.29119" lon="6.81726">
        <ele>511.56</ele>
        <time>2016-01-09T13:44:55Z</time>
      </trkpt>
      <trkpt lat="48.29123" lon="6.81742">
        <ele>513.48</ele>
        <time>2016-01-09T13:45:04Z</time>
      </trkpt>
      <trkpt lat="48.29123" lon="6.81746">
        <ele>512.52</ele>
        <time>2016-01-09T13:45:06Z</time>
      </trkpt>
      <trkpt lat="48.29125" lon="6.81756">
        <ele>513</ele>
        <time>2016-01-09T13:45:11Z</time>
      </trkpt>
      <trkpt lat="48.29127" lon="6.81761">
        <ele>513.48</ele>
        <time>2016-01-09T13:45:14Z</time>
      </trkpt>
      <trkpt lat="48.29135" lon="6.81782">
        <ele>515.4</ele>
        <time>2016-01-09T13:45:26Z</time>
      </trkpt>
      <trkpt lat="48.29141" lon="6.81791">
        <ele>515.88</ele>
        <time>2016-01-09T13:45:31Z</time>
      </trkpt>
      <trkpt lat="48.29143" lon="6.818">
        <ele>512.04</ele>
        <time>2016-01-09T13:45:35Z</time>
      </trkpt>
      <trkpt lat="48.29148" lon="6.81808">
        <ele>513</ele>
        <time>2016-01-09T13:45:40Z</time>
      </trkpt>
      <trkpt lat="48.29148" lon="6.81809">
        <ele>516.37</ele>
        <time>2016-01-09T13:45:41Z</time>
      </trkpt>
      <trkpt lat="48.29148" lon="6.8181">
        <ele>511.56</ele>
        <time>2016-01-09T13:45:48Z</time>
      </trkpt>
      <trkpt lat="48.29148" lon="6.8181">
        <ele>516.37</ele>
        <time>2016-01-09T13:45:49Z</time>
      </trkpt>
      <trkpt lat="48.29148" lon="6.81816">
        <ele>517.81</ele>
        <time>2016-01-09T13:46:00Z</time>
      </trkpt>
      <trkpt lat="48.29148" lon="6.81816">
        <ele>516.37</ele>
        <time>2016-01-09T13:46:04Z</time>
      </trkpt>
      <trkpt lat="48.29148" lon="6.81816">
        <ele>513</ele>
        <time>2016-01-09T13:46:06Z</time>
      </trkpt>
      <trkpt lat="48.29148" lon="6.81816">
        <ele>521.17</ele>
        <time>2016-01-09T13:46:07Z</time>
      </trkpt>
      <trkpt lat="48.29148" lon="6.81816">
        <ele>516.37</ele>
        <time>2016-01-09T13:46:08Z</time>
      </trkpt>
      <trkpt lat="48.29153" lon="6.81821">
        <ele>509.64</ele>
        <time>2016-01-09T13:46:27Z</time>
      </trkpt>
      <trkpt lat="48.29154" lon="6.81822">
        <ele>519.73</ele>
        <time>2016-01-09T13:46:29Z</time>
      </trkpt>
      <trkpt lat="48.29155" lon="6.81823">
        <ele>514.44</ele>
        <time>2016-01-09T13:46:30Z</time>
      </trkpt>
      <trkpt lat="48.29155" lon="6.81824">
        <ele>520.21</ele>
        <time>2016-01-09T13:46:31Z</time>
      </trkpt>
      <trkpt lat="48.29157" lon="6.81829">
        <ele>519.73</ele>
        <time>2016-01-09T13:46:35Z</time>
      </trkpt>
      <trkpt lat="48.29164" lon="6.81836">
        <ele>522.13</ele>
        <time>2016-01-09T13:46:43Z</time>
      </trkpt>
      <trkpt lat="48.29172" lon="6.81847">
        <ele>524.54</ele>
        <time>2016-01-09T13:46:51Z</time>
      </trkpt>
      <trkpt lat="48.29182" lon="6.81868">
        <ele>527.42</ele>
        <time>2016-01-09T13:47:03Z</time>
      </trkpt>
      <trkpt lat="48.29192" lon="6.81882">
        <ele>530.3</ele>
        <time>2016-01-09T13:47:16Z</time>
      </trkpt>
      <trkpt lat="48.29194" lon="6.81885">
        <ele>531.27</ele>
        <time>2016-01-09T13:47:20Z</time>
      </trkpt>
      <trkpt lat="48.29205" lon="6.81904">
        <ele>534.63</ele>
        <time>2016-01-09T13:47:34Z</time>
      </trkpt>
      <trkpt lat="48.29215" lon="6.81921">
        <ele>537.03</ele>
        <time>2016-01-09T13:47:49Z</time>
      </trkpt>
      <trkpt lat="48.29219" lon="6.81926">
        <ele>537.99</ele>
        <time>2016-01-09T13:47:53Z</time>
      </trkpt>
      <trkpt lat="48.29232" lon="6.8194">
        <ele>540.88</ele>
        <time>2016-01-09T13:48:06Z</time>
      </trkpt>
      <trkpt lat="48.29233" lon="6.81943">
        <ele>540.88</ele>
        <time>2016-01-09T13:48:08Z</time>
      </trkpt>
      <trkpt lat="48.29243" lon="6.81967">
        <ele>543.76</ele>
        <time>2016-01-09T13:48:21Z</time>
      </trkpt>
      <trkpt lat="48.2925" lon="6.81985">
        <ele>545.69</ele>
        <time>2016-01-09T13:48:33Z</time>
      </trkpt>
      <trkpt lat="48.2926" lon="6.82002">
        <ele>548.57</ele>
        <time>2016-01-09T13:48:46Z</time>
      </trkpt>
      <trkpt lat="48.29266" lon="6.82015">
        <ele>551.45</ele>
        <time>2016-01-09T13:48:56Z</time>
      </trkpt>
      <trkpt lat="48.29267" lon="6.82018">
        <ele>550.97</ele>
        <time>2016-01-09T13:48:57Z</time>
      </trkpt>
      <trkpt lat="48.29272" lon="6.82038">
        <ele>553.86</ele>
        <time>2016-01-09T13:49:08Z</time>
      </trkpt>
      <trkpt lat="48.29272" lon="6.82045">
        <ele>554.34</ele>
        <time>2016-01-09T13:49:11Z</time>
      </trkpt>
      <trkpt lat="48.29276" lon="6.82068">
        <ele>556.74</ele>
        <time>2016-01-09T13:49:23Z</time>
      </trkpt>
      <trkpt lat="48.29277" lon="6.82089">
        <ele>558.66</ele>
        <time>2016-01-09T13:49:36Z</time>
      </trkpt>
      <trkpt lat="48.29276" lon="6.82091">
        <ele>560.59</ele>
        <time>2016-01-09T13:49:38Z</time>
      </trkpt>
      <trkpt lat="48.29278" lon="6.82095">
        <ele>555.3</ele>
        <time>2016-01-09T13:49:43Z</time>
      </trkpt>
      <trkpt lat="48.29277" lon="6.82097">
        <ele>561.55</ele>
        <time>2016-01-09T13:49:45Z</time>
      </trkpt>
      <trkpt lat="48.29277" lon="6.82097">
        <ele>555.78</ele>
        <time>2016-01-09T13:49:46Z</time>
      </trkpt>
      <trkpt lat="48.29277" lon="6.82097">
        <ele>560.11</ele>
        <time>2016-01-09T13:49:49Z</time>
      </trkpt>
      <trkpt lat="48.29276" lon="6.82098">
        <ele>557.22</ele>
        <time>2016-01-09T13:49:52Z</time>
      </trkpt>
      <trkpt lat="48.29276" lon="6.82097">
        <ele>560.59</ele>
        <time>2016-01-09T13:49:54Z</time>
      </trkpt>
      <trkpt lat="48.29276" lon="6.82097">
        <ele>553.86</ele>
        <time>2016-01-09T13:49:56Z</time>
      </trkpt>
      <trkpt lat="48.29276" lon="6.82097">
        <ele>561.07</ele>
        <time>2016-01-09T13:49:57Z</time>
      </trkpt>
      <trkpt lat="48.29276" lon="6.82097">
        <ele>556.74</ele>
        <time>2016-01-09T13:49:58Z</time>
      </trkpt>
      <trkpt lat="48.29276" lon="6.82096">
        <ele>560.59</ele>
        <time>2016-01-09T13:49:59Z</time>
      </trkpt>
      <trkpt lat="48.29273" lon="6.82096">
        <ele>560.11</ele>
        <time>2016-01-09T13:50:17Z</time>
      </trkpt>
      <trkpt lat="48.29272" lon="6.82098">
        <ele>559.62</ele>
        <time>2016-01-09T13:50:22Z</time>
      </trkpt>
      <trkpt lat="48.2927" lon="6.82102">
        <ele>559.62</ele>
        <time>2016-01-09T13:50:30Z</time>
      </trkpt>
      <trkpt lat="48.2927" lon="6.82103">
        <ele>559.62</ele>
        <time>2016-01-09T13:50:32Z</time>
      </trkpt>
      <trkpt lat="48.29267" lon="6.82111">
        <ele>560.11</ele>
        <time>2016-01-09T13:50:37Z</time>
      </trkpt>
      <trkpt lat="48.29265" lon="6.82136">
        <ele>561.55</ele>
        <time>2016-01-09T13:50:51Z</time>
      </trkpt>
      <trkpt lat="48.29265" lon="6.8216">
        <ele>563.47</ele>
        <time>2016-01-09T13:51:05Z</time>
      </trkpt>
      <trkpt lat="48.29265" lon="6.82183">
        <ele>565.39</ele>
        <time>2016-01-09T13:51:17Z</time>
      </trkpt>
      <trkpt lat="48.29265" lon="6.82185">
        <ele>565.87</ele>
        <time>2016-01-09T13:51:18Z</time>
      </trkpt>
      <trkpt lat="48.29259" lon="6.82213">
        <ele>567.8</ele>
        <time>2016-01-09T13:51:33Z</time>
      </trkpt>
      <trkpt lat="48.29258" lon="6.82223">
        <ele>566.35</ele>
        <time>2016-01-09T13:51:37Z</time>
      </trkpt>
      <trkpt lat="48.29257" lon="6.82226">
        <ele>568.76</ele>
        <time>2016-01-09T13:51:39Z</time>
      </trkpt>
      <trkpt lat="48.29255" lon="6.82239">
        <ele>563.47</ele>
        <time>2016-01-09T13:51:49Z</time>
      </trkpt>
      <trkpt lat="48.29253" lon="6.82242">
        <ele>570.2</ele>
        <time>2016-01-09T13:51:50Z</time>
      </trkpt>
      <trkpt lat="48.29249" lon="6.82252">
        <ele>569.72</ele>
        <time>2016-01-09T13:52:01Z</time>
      </trkpt>
      <trkpt lat="48.29247" lon="6.82263">
        <ele>570.68</ele>
        <time>2016-01-09T13:52:07Z</time>
      </trkpt>
      <trkpt lat="48.29243" lon="6.82292">
        <ele>573.08</ele>
        <time>2016-01-09T13:52:22Z</time>
      </trkpt>
      <trkpt lat="48.29242" lon="6.82301">
        <ele>573.56</ele>
        <time>2016-01-09T13:52:27Z</time>
      </trkpt>
      <trkpt lat="48.29231" lon="6.82314">
        <ele>574.04</ele>
        <time>2016-01-09T13:52:41Z</time>
      </trkpt>
      <trkpt lat="48.2923" lon="6.82313">
        <ele>573.08</ele>
        <time>2016-01-09T13:52:47Z</time>
      </trkpt>
      <trkpt lat="48.29229" lon="6.82315">
        <ele>573.08</ele>
        <time>2016-01-09T13:52:49Z</time>
      </trkpt>
      <trkpt lat="48.29226" lon="6.82321">
        <ele>574.04</ele>
        <time>2016-01-09T13:52:54Z</time>
      </trkpt>
      <trkpt lat="48.29224" lon="6.82327">
        <ele>574.04</ele>
        <time>2016-01-09T13:52:57Z</time>
      </trkpt>
      <trkpt lat="48.29222" lon="6.82352">
        <ele>574.53</ele>
        <time>2016-01-09T13:53:10Z</time>
      </trkpt>
      <trkpt lat="48.29212" lon="6.82374">
        <ele>575.01</ele>
        <time>2016-01-09T13:53:23Z</time>
      </trkpt>
      <trkpt lat="48.29198" lon="6.82383">
        <ele>575.01</ele>
        <time>2016-01-09T13:53:36Z</time>
      </trkpt>
      <trkpt lat="48.29196" lon="6.82383">
        <ele>575.49</ele>
        <time>2016-01-09T13:53:40Z</time>
      </trkpt>
      <trkpt lat="48.29177" lon="6.82398">
        <ele>575.01</ele>
        <time>2016-01-09T13:53:53Z</time>
      </trkpt>
      <trkpt lat="48.29167" lon="6.82402">
        <ele>574.04</ele>
        <time>2016-01-09T13:53:57Z</time>
      </trkpt>
      <trkpt lat="48.29151" lon="6.82415">
        <ele>573.56</ele>
        <time>2016-01-09T13:54:09Z</time>
      </trkpt>
      <trkpt lat="48.2915" lon="6.82416">
        <ele>573.56</ele>
        <time>2016-01-09T13:54:10Z</time>
      </trkpt>
      <trkpt lat="48.29143" lon="6.82422">
        <ele>573.08</ele>
        <time>2016-01-09T13:54:15Z</time>
      </trkpt>
      <trkpt lat="48.29127" lon="6.82435">
        <ele>571.64</ele>
        <time>2016-01-09T13:54:28Z</time>
      </trkpt>
      <trkpt lat="48.29118" lon="6.82447">
        <ele>571.16</ele>
        <time>2016-01-09T13:54:38Z</time>
      </trkpt>
      <trkpt lat="48.29115" lon="6.82457">
        <ele>570.68</ele>
        <time>2016-01-09T13:54:41Z</time>
      </trkpt>
      <trkpt lat="48.29103" lon="6.82489">
        <ele>570.2</ele>
        <time>2016-01-09T13:54:53Z</time>
      </trkpt>
      <trkpt lat="48.29098" lon="6.82497">
        <ele>569.72</ele>
        <time>2016-01-09T13:54:58Z</time>
      </trkpt>
      <trkpt lat="48.2909" lon="6.82514">
        <ele>568.76</ele>
        <time>2016-01-09T13:55:08Z</time>
      </trkpt>
      <trkpt lat="48.29087" lon="6.82528">
        <ele>572.12</ele>
        <time>2016-01-09T13:55:16Z</time>
      </trkpt>
      <trkpt lat="48.29086" lon="6.82529">
        <ele>568.76</ele>
        <time>2016-01-09T13:55:17Z</time>
      </trkpt>
      <trkpt lat="48.29084" lon="6.82533">
        <ele>563.95</ele>
        <time>2016-01-09T13:55:24Z</time>
      </trkpt>
      <trkpt lat="48.29084" lon="6.82533">
        <ele>568.76</ele>
        <time>2016-01-09T13:55:25Z</time>
      </trkpt>
      <trkpt lat="48.29084" lon="6.82535">
        <ele>565.87</ele>
        <time>2016-01-09T13:55:31Z</time>
      </trkpt>
      <trkpt lat="48.29084" lon="6.82535">
        <ele>565.87</ele>
        <time>2016-01-09T13:55:32Z</time>
      </trkpt>
      <trkpt lat="48.29084" lon="6.82537">
        <ele>568.28</ele>
        <time>2016-01-09T13:55:37Z</time>
      </trkpt>
      <trkpt lat="48.29072" lon="6.82546">
        <ele>564.91</ele>
        <time>2016-01-09T13:55:48Z</time>
      </trkpt>
      <trkpt lat="48.29071" lon="6.82551">
        <ele>563.95</ele>
        <time>2016-01-09T13:55:52Z</time>
      </trkpt>
      <trkpt lat="48.2907" lon="6.82565">
        <ele>562.99</ele>
        <time>2016-01-09T13:56:04Z</time>
      </trkpt>
      <trkpt lat="48.2907" lon="6.82566">
        <ele>558.66</ele>
        <time>2016-01-09T13:56:14Z</time>
      </trkpt>
      <trkpt lat="48.2907" lon="6.82566">
        <ele>562.51</ele>
        <time>2016-01-09T13:56:15Z</time>
      </trkpt>
      <trkpt lat="48.2907" lon="6.82566">
        <ele>558.18</ele>
        <time>2016-01-09T13:56:17Z</time>
      </trkpt>
      <trkpt lat="48.2907" lon="6.82566">
        <ele>563.47</ele>
        <time>2016-01-09T13:56:18Z</time>
      </trkpt>
      <trkpt lat="48.2907" lon="6.82566">
        <ele>560.11</ele>
        <time>2016-01-09T13:56:22Z</time>
      </trkpt>
      <trkpt lat="48.2907" lon="6.82566">
        <ele>563.95</ele>
        <time>2016-01-09T13:56:23Z</time>
      </trkpt>
      <trkpt lat="48.2907" lon="6.82566">
        <ele>560.11</ele>
        <time>2016-01-09T13:56:34Z</time>
      </trkpt>
      <trkpt lat="48.2907" lon="6.82566">
        <ele>563.95</ele>
        <time>2016-01-09T13:56:35Z</time>
      </trkpt>
      <trkpt lat="48.2907" lon="6.82566">
        <ele>560.59</ele>
        <time>2016-01-09T13:56:36Z</time>
      </trkpt>
      <trkpt lat="48.2907" lon="6.82566">
        <ele>566.35</ele>
        <time>2016-01-09T13:56:37Z</time>
      </trkpt>
      <trkpt lat="48.29069" lon="6.82566">
        <ele>561.55</ele>
        <time>2016-01-09T13:56:40Z</time>
      </trkpt>
      <trkpt lat="48.29069" lon="6.82566">
        <ele>564.43</ele>
        <time>2016-01-09T13:56:41Z</time>
      </trkpt>
      <trkpt lat="48.29069" lon="6.82567">
        <ele>560.11</ele>
        <time>2016-01-09T13:56:43Z</time>
      </trkpt>
      <trkpt lat="48.29069" lon="6.82567">
        <ele>564.43</ele>
        <time>2016-01-09T13:56:44Z</time>
      </trkpt>
      <trkpt lat="48.29069" lon="6.82567">
        <ele>561.07</ele>
        <time>2016-01-09T13:56:53Z</time>
      </trkpt>
      <trkpt lat="48.29069" lon="6.82567">
        <ele>562.03</ele>
        <time>2016-01-09T13:56:54Z</time>
      </trkpt>
      <trkpt lat="48.29069" lon="6.82567">
        <ele>565.39</ele>
        <time>2016-01-09T13:56:55Z</time>
      </trkpt>
      <trkpt lat="48.29069" lon="6.82567">
        <ele>561.55</ele>
        <time>2016-01-09T13:56:56Z</time>
      </trkpt>
      <trkpt lat="48.29069" lon="6.82567">
        <ele>558.18</ele>
        <time>2016-01-09T13:57:02Z</time>
      </trkpt>
      <trkpt lat="48.29069" lon="6.82567">
        <ele>564.43</ele>
        <time>2016-01-09T13:57:03Z</time>
      </trkpt>
      <trkpt lat="48.29069" lon="6.82567">
        <ele>561.07</ele>
        <time>2016-01-09T13:57:04Z</time>
      </trkpt>
      <trkpt lat="48.29069" lon="6.82567">
        <ele>563.95</ele>
        <time>2016-01-09T13:57:06Z</time>
      </trkpt>
      <trkpt lat="48.29069" lon="6.82568">
        <ele>557.7</ele>
        <time>2016-01-09T13:57:08Z</time>
      </trkpt>
      <trkpt lat="48.29069" lon="6.82568">
        <ele>563.95</ele>
        <time>2016-01-09T13:57:09Z</time>
      </trkpt>
      <trkpt lat="48.29069" lon="6.82568">
        <ele>561.07</ele>
        <time>2016-01-09T13:57:11Z</time>
      </trkpt>
      <trkpt lat="48.2907" lon="6.82568">
        <ele>563.95</ele>
        <time>2016-01-09T13:57:13Z</time>
      </trkpt>
      <trkpt lat="48.2907" lon="6.82568">
        <ele>559.14</ele>
        <time>2016-01-09T13:57:14Z</time>
      </trkpt>
      <trkpt lat="48.2907" lon="6.82568">
        <ele>562.03</ele>
        <time>2016-01-09T13:57:15Z</time>
      </trkpt>
      <trkpt lat="48.2907" lon="6.82568">
        <ele>564.91</ele>
        <time>2016-01-09T13:57:16Z</time>
      </trkpt>
      <trkpt lat="48.2907" lon="6.82568">
        <ele>561.07</ele>
        <time>2016-01-09T13:57:17Z</time>
      </trkpt>
      <trkpt lat="48.2907" lon="6.82568">
        <ele>561.55</ele>
        <time>2016-01-09T13:57:18Z</time>
      </trkpt>
      <trkpt lat="48.2907" lon="6.82568">
        <ele>564.91</ele>
        <time>2016-01-09T13:57:25Z</time>
      </trkpt>
      <trkpt lat="48.2907" lon="6.82568">
        <ele>563.95</ele>
        <time>2016-01-09T13:57:26Z</time>
      </trkpt>
      <trkpt lat="48.2907" lon="6.82568">
        <ele>562.03</ele>
        <time>2016-01-09T13:57:29Z</time>
      </trkpt>
      <trkpt lat="48.29071" lon="6.82569">
        <ele>555.3</ele>
        <time>2016-01-09T13:57:31Z</time>
      </trkpt>
      <trkpt lat="48.29071" lon="6.82569">
        <ele>564.43</ele>
        <time>2016-01-09T13:57:32Z</time>
      </trkpt>
      <trkpt lat="48.29071" lon="6.82569">
        <ele>561.07</ele>
        <time>2016-01-09T13:57:34Z</time>
      </trkpt>
      <trkpt lat="48.29071" lon="6.82569">
        <ele>564.43</ele>
        <time>2016-01-09T13:57:35Z</time>
      </trkpt>
      <trkpt lat="48.29071" lon="6.82569">
        <ele>558.18</ele>
        <time>2016-01-09T13:57:39Z</time>
      </trkpt>
      <trkpt lat="48.29071" lon="6.82569">
        <ele>563.95</ele>
        <time>2016-01-09T13:57:40Z</time>
      </trkpt>
      <trkpt lat="48.2907" lon="6.82569">
        <ele>563.47</ele>
        <time>2016-01-09T13:57:47Z</time>
      </trkpt>
      <trkpt lat="48.2907" lon="6.82569">
        <ele>558.66</ele>
        <time>2016-01-09T13:57:49Z</time>
      </trkpt>
      <trkpt lat="48.2907" lon="6.82569">
        <ele>564.43</ele>
        <time>2016-01-09T13:57:50Z</time>
      </trkpt>
      <trkpt lat="48.29071" lon="6.82569">
        <ele>565.39</ele>
        <time>2016-01-09T13:57:52Z</time>
      </trkpt>
      <trkpt lat="48.29071" lon="6.82569">
        <ele>563.47</ele>
        <time>2016-01-09T13:57:54Z</time>
      </trkpt>
      <trkpt lat="48.29071" lon="6.82569">
        <ele>558.18</ele>
        <time>2016-01-09T13:57:55Z</time>
      </trkpt>
      <trkpt lat="48.29071" lon="6.82569">
        <ele>563.95</ele>
        <time>2016-01-09T13:57:56Z</time>
      </trkpt>
      <trkpt lat="48.29071" lon="6.82569">
        <ele>561.07</ele>
        <time>2016-01-09T13:57:58Z</time>
      </trkpt>
      <trkpt lat="48.29071" lon="6.82569">
        <ele>565.87</ele>
        <time>2016-01-09T13:58:01Z</time>
      </trkpt>
      <trkpt lat="48.29071" lon="6.82569">
        <ele>556.26</ele>
        <time>2016-01-09T13:58:02Z</time>
      </trkpt>
      <trkpt lat="48.29071" lon="6.82569">
        <ele>568.76</ele>
        <time>2016-01-09T13:58:03Z</time>
      </trkpt>
      <trkpt lat="48.29071" lon="6.82569">
        <ele>562.51</ele>
        <time>2016-01-09T13:58:04Z</time>
      </trkpt>
      <trkpt lat="48.29071" lon="6.82569">
        <ele>566.83</ele>
        <time>2016-01-09T13:58:06Z</time>
      </trkpt>
      <trkpt lat="48.29071" lon="6.82569">
        <ele>565.87</ele>
        <time>2016-01-09T13:58:07Z</time>
      </trkpt>
      <trkpt lat="48.29071" lon="6.82569">
        <ele>559.14</ele>
        <time>2016-01-09T13:58:10Z</time>
      </trkpt>
      <trkpt lat="48.29071" lon="6.82569">
        <ele>561.07</ele>
        <time>2016-01-09T13:58:11Z</time>
      </trkpt>
      <trkpt lat="48.29071" lon="6.82569">
        <ele>564.91</ele>
        <time>2016-01-09T13:58:12Z</time>
      </trkpt>
      <trkpt lat="48.29071" lon="6.82569">
        <ele>564.43</ele>
        <time>2016-01-09T13:58:13Z</time>
      </trkpt>
      <trkpt lat="48.29069" lon="6.82568">
        <ele>562.99</ele>
        <time>2016-01-09T13:58:24Z</time>
      </trkpt>
      <trkpt lat="48.29067" lon="6.82565">
        <ele>561.55</ele>
        <time>2016-01-09T13:58:36Z</time>
      </trkpt>
      <trkpt lat="48.29067" lon="6.82565">
        <ele>559.14</ele>
        <time>2016-01-09T13:58:46Z</time>
      </trkpt>
      <trkpt lat="48.29063" lon="6.8257">
        <ele>558.18</ele>
        <time>2016-01-09T13:58:50Z</time>
      </trkpt>
      <trkpt lat="48.29059" lon="6.82573">
        <ele>555.78</ele>
        <time>2016-01-09T13:59:02Z</time>
      </trkpt>
      <trkpt lat="48.29053" lon="6.82581">
        <ele>552.41</ele>
        <time>2016-01-09T13:59:12Z</time>
      </trkpt>
      <trkpt lat="48.29052" lon="6.82584">
        <ele>551.45</ele>
        <time>2016-01-09T13:59:16Z</time>
      </trkpt>
      <trkpt lat="48.29042" lon="6.82597">
        <ele>548.09</ele>
        <time>2016-01-09T13:59:28Z</time>
      </trkpt>
      <trkpt lat="48.2904" lon="6.82598">
        <ele>546.65</ele>
        <time>2016-01-09T13:59:30Z</time>
      </trkpt>
      <trkpt lat="48.29032" lon="6.82607">
        <ele>543.76</ele>
        <time>2016-01-09T13:59:41Z</time>
      </trkpt>
      <trkpt lat="48.29029" lon="6.82609">
        <ele>542.8</ele>
        <time>2016-01-09T13:59:44Z</time>
      </trkpt>
      <trkpt lat="48.29019" lon="6.82615">
        <ele>538.96</ele>
        <time>2016-01-09T13:59:55Z</time>
      </trkpt>
      <trkpt lat="48.29012" lon="6.82616">
        <ele>536.55</ele>
        <time>2016-01-09T14:00:08Z</time>
      </trkpt>
      <trkpt lat="48.29012" lon="6.82616">
        <ele>532.71</ele>
        <time>2016-01-09T14:00:14Z</time>
      </trkpt>
      <trkpt lat="48.29012" lon="6.82616">
        <ele>536.55</ele>
        <time>2016-01-09T14:00:15Z</time>
      </trkpt>
      <trkpt lat="48.29013" lon="6.82617">
        <ele>533.19</ele>
        <time>2016-01-09T14:00:25Z</time>
      </trkpt>
      <trkpt lat="48.29013" lon="6.82616">
        <ele>537.03</ele>
        <time>2016-01-09T14:00:26Z</time>
      </trkpt>
      <trkpt lat="48.29016" lon="6.8262">
        <ele>536.55</ele>
        <time>2016-01-09T14:00:33Z</time>
      </trkpt>
      <trkpt lat="48.2902" lon="6.82627">
        <ele>535.59</ele>
        <time>2016-01-09T14:00:40Z</time>
      </trkpt>
      <trkpt lat="48.29029" lon="6.82641">
        <ele>534.63</ele>
        <time>2016-01-09T14:00:50Z</time>
      </trkpt>
      <trkpt lat="48.29032" lon="6.82645">
        <ele>534.15</ele>
        <time>2016-01-09T14:00:52Z</time>
      </trkpt>
      <trkpt lat="48.29042" lon="6.82664">
        <ele>533.19</ele>
        <time>2016-01-09T14:01:04Z</time>
      </trkpt>
      <trkpt lat="48.29046" lon="6.8267">
        <ele>532.71</ele>
        <time>2016-01-09T14:01:08Z</time>
      </trkpt>
      <trkpt lat="48.29051" lon="6.82677">
        <ele>532.23</ele>
        <time>2016-01-09T14:01:12Z</time>
      </trkpt>
      <trkpt lat="48.29062" lon="6.82689">
        <ele>530.3</ele>
        <time>2016-01-09T14:01:23Z</time>
      </trkpt>
      <trkpt lat="48.29073" lon="6.82688">
        <ele>529.34</ele>
        <time>2016-01-09T14:01:28Z</time>
      </trkpt>
      <trkpt lat="48.29086" lon="6.82684">
        <ele>527.9</ele>
        <time>2016-01-09T14:01:36Z</time>
      </trkpt>
      <trkpt lat="48.29095" lon="6.82682">
        <ele>527.42</ele>
        <time>2016-01-09T14:01:42Z</time>
      </trkpt>
      <trkpt lat="48.29105" lon="6.82677">
        <ele>525.98</ele>
        <time>2016-01-09T14:01:49Z</time>
      </trkpt>
      <trkpt lat="48.29112" lon="6.82675">
        <ele>525.5</ele>
        <time>2016-01-09T14:01:54Z</time>
      </trkpt>
      <trkpt lat="48.29117" lon="6.82669">
        <ele>525.5</ele>
        <time>2016-01-09T14:01:59Z</time>
      </trkpt>
      <trkpt lat="48.29124" lon="6.82666">
        <ele>525.02</ele>
        <time>2016-01-09T14:02:03Z</time>
      </trkpt>
      <trkpt lat="48.29142" lon="6.82661">
        <ele>524.06</ele>
        <time>2016-01-09T14:02:15Z</time>
      </trkpt>
      <trkpt lat="48.29143" lon="6.8266">
        <ele>524.06</ele>
        <time>2016-01-09T14:02:16Z</time>
      </trkpt>
      <trkpt lat="48.29159" lon="6.82647">
        <ele>525.02</ele>
        <time>2016-01-09T14:02:28Z</time>
      </trkpt>
      <trkpt lat="48.29172" lon="6.82627">
        <ele>526.94</ele>
        <time>2016-01-09T14:02:40Z</time>
      </trkpt>
      <trkpt lat="48.29185" lon="6.82606">
        <ele>528.38</ele>
        <time>2016-01-09T14:02:53Z</time>
      </trkpt>
      <trkpt lat="48.2919" lon="6.82597">
        <ele>528.86</ele>
        <time>2016-01-09T14:02:58Z</time>
      </trkpt>
      <trkpt lat="48.29195" lon="6.8259">
        <ele>529.82</ele>
        <time>2016-01-09T14:03:01Z</time>
      </trkpt>
      <trkpt lat="48.29198" lon="6.82585">
        <ele>530.3</ele>
        <time>2016-01-09T14:03:05Z</time>
      </trkpt>
      <trkpt lat="48.29201" lon="6.82579">
        <ele>530.79</ele>
        <time>2016-01-09T14:03:07Z</time>
      </trkpt>
      <trkpt lat="48.29206" lon="6.8257">
        <ele>531.75</ele>
        <time>2016-01-09T14:03:13Z</time>
      </trkpt>
      <trkpt lat="48.29209" lon="6.82565">
        <ele>532.23</ele>
        <time>2016-01-09T14:03:16Z</time>
      </trkpt>
      <trkpt lat="48.29221" lon="6.82546">
        <ele>533.67</ele>
        <time>2016-01-09T14:03:28Z</time>
      </trkpt>
      <trkpt lat="48.29232" lon="6.82532">
        <ele>536.07</ele>
        <time>2016-01-09T14:03:41Z</time>
      </trkpt>
      <trkpt lat="48.29253" lon="6.82509">
        <ele>538.96</ele>
        <time>2016-01-09T14:03:55Z</time>
      </trkpt>
      <trkpt lat="48.29265" lon="6.82502">
        <ele>540.88</ele>
        <time>2016-01-09T14:04:06Z</time>
      </trkpt>
      <trkpt lat="48.29272" lon="6.82498">
        <ele>542.32</ele>
        <time>2016-01-09T14:04:12Z</time>
      </trkpt>
      <trkpt lat="48.29291" lon="6.8249">
        <ele>544.24</ele>
        <time>2016-01-09T14:04:24Z</time>
      </trkpt>
      <trkpt lat="48.29303" lon="6.82497">
        <ele>545.69</ele>
        <time>2016-01-09T14:04:34Z</time>
      </trkpt>
      <trkpt lat="48.29306" lon="6.82499">
        <ele>546.17</ele>
        <time>2016-01-09T14:04:36Z</time>
      </trkpt>
      <trkpt lat="48.29324" lon="6.82516">
        <ele>548.57</ele>
        <time>2016-01-09T14:04:49Z</time>
      </trkpt>
      <trkpt lat="48.29329" lon="6.8252">
        <ele>549.53</ele>
        <time>2016-01-09T14:04:56Z</time>
      </trkpt>
      <trkpt lat="48.29329" lon="6.82529">
        <ele>550.01</ele>
        <time>2016-01-09T14:04:59Z</time>
      </trkpt>
      <trkpt lat="48.29328" lon="6.82533">
        <ele>550.97</ele>
        <time>2016-01-09T14:05:01Z</time>
      </trkpt>
      <trkpt lat="48.29325" lon="6.82535">
        <ele>550.97</ele>
        <time>2016-01-09T14:05:04Z</time>
      </trkpt>
      <trkpt lat="48.2932" lon="6.82539">
        <ele>551.45</ele>
        <time>2016-01-09T14:05:08Z</time>
      </trkpt>
      <trkpt lat="48.29307" lon="6.82547">
        <ele>553.86</ele>
        <time>2016-01-09T14:05:21Z</time>
      </trkpt>
      <trkpt lat="48.29302" lon="6.82551">
        <ele>554.34</ele>
        <time>2016-01-09T14:05:24Z</time>
      </trkpt>
      <trkpt lat="48.29292" lon="6.82563">
        <ele>555.78</ele>
        <time>2016-01-09T14:05:33Z</time>
      </trkpt>
      <trkpt lat="48.29287" lon="6.8258">
        <ele>557.22</ele>
        <time>2016-01-09T14:05:42Z</time>
      </trkpt>
      <trkpt lat="48.29282" lon="6.82603">
        <ele>558.66</ele>
        <time>2016-01-09T14:05:54Z</time>
      </trkpt>
      <trkpt lat="48.29281" lon="6.82629">
        <ele>559.62</ele>
        <time>2016-01-09T14:06:07Z</time>
      </trkpt>
      <trkpt lat="48.29281" lon="6.82634">
        <ele>560.11</ele>
        <time>2016-01-09T14:06:09Z</time>
      </trkpt>
      <trkpt lat="48.29287" lon="6.82658">
        <ele>560.59</ele>
        <time>2016-01-09T14:06:20Z</time>
      </trkpt>
      <trkpt lat="48.29293" lon="6.82679">
        <ele>560.59</ele>
        <time>2016-01-09T14:06:30Z</time>
      </trkpt>
      <trkpt lat="48.29294" lon="6.82706">
        <ele>561.55</ele>
        <time>2016-01-09T14:06:40Z</time>
      </trkpt>
      <trkpt lat="48.29295" lon="6.82714">
        <ele>561.55</ele>
        <time>2016-01-09T14:06:44Z</time>
      </trkpt>
      <trkpt lat="48.29295" lon="6.82721">
        <ele>562.03</ele>
        <time>2016-01-09T14:06:47Z</time>
      </trkpt>
      <trkpt lat="48.29292" lon="6.82733">
        <ele>562.99</ele>
        <time>2016-01-09T14:06:52Z</time>
      </trkpt>
      <trkpt lat="48.29286" lon="6.82768">
        <ele>565.39</ele>
        <time>2016-01-09T14:07:06Z</time>
      </trkpt>
      <trkpt lat="48.29289" lon="6.8278">
        <ele>566.35</ele>
        <time>2016-01-09T14:07:12Z</time>
      </trkpt>
      <trkpt lat="48.29304" lon="6.82795">
        <ele>567.8</ele>
        <time>2016-01-09T14:07:24Z</time>
      </trkpt>
      <trkpt lat="48.29318" lon="6.82801">
        <ele>568.28</ele>
        <time>2016-01-09T14:07:34Z</time>
      </trkpt>
      <trkpt lat="48.29331" lon="6.82806">
        <ele>569.72</ele>
        <time>2016-01-09T14:07:44Z</time>
      </trkpt>
      <trkpt lat="48.29337" lon="6.82807">
        <ele>570.2</ele>
        <time>2016-01-09T14:07:47Z</time>
      </trkpt>
      <trkpt lat="48.29344" lon="6.82811">
        <ele>571.16</ele>
        <time>2016-01-09T14:07:54Z</time>
      </trkpt>
      <trkpt lat="48.29355" lon="6.82812">
        <ele>571.64</ele>
        <time>2016-01-09T14:08:00Z</time>
      </trkpt>
      <trkpt lat="48.29373" lon="6.82814">
        <ele>572.6</ele>
        <time>2016-01-09T14:08:12Z</time>
      </trkpt>
      <trkpt lat="48.2938" lon="6.82816">
        <ele>572.6</ele>
        <time>2016-01-09T14:08:17Z</time>
      </trkpt>
      <trkpt lat="48.29406" lon="6.82823">
        <ele>574.04</ele>
        <time>2016-01-09T14:08:31Z</time>
      </trkpt>
      <trkpt lat="48.2943" lon="6.8283">
        <ele>575.49</ele>
        <time>2016-01-09T14:08:45Z</time>
      </trkpt>
      <trkpt lat="48.29448" lon="6.8284">
        <ele>575.49</ele>
        <time>2016-01-09T14:08:58Z</time>
      </trkpt>
      <trkpt lat="48.29451" lon="6.82844">
        <ele>575.97</ele>
        <time>2016-01-09T14:09:00Z</time>
      </trkpt>
      <trkpt lat="48.29462" lon="6.82862">
        <ele>576.45</ele>
        <time>2016-01-09T14:09:09Z</time>
      </trkpt>
      <trkpt lat="48.29466" lon="6.82872">
        <ele>576.45</ele>
        <time>2016-01-09T14:09:13Z</time>
      </trkpt>
      <trkpt lat="48.2947" lon="6.82894">
        <ele>580.77</ele>
        <time>2016-01-09T14:09:24Z</time>
      </trkpt>
      <trkpt lat="48.2947" lon="6.82897">
        <ele>576.45</ele>
        <time>2016-01-09T14:09:25Z</time>
      </trkpt>
      <trkpt lat="48.29471" lon="6.829">
        <ele>569.24</ele>
        <time>2016-01-09T14:09:27Z</time>
      </trkpt>
      <trkpt lat="48.29471" lon="6.82902">
        <ele>577.89</ele>
        <time>2016-01-09T14:09:28Z</time>
      </trkpt>
      <trkpt lat="48.29472" lon="6.8291">
        <ele>572.6</ele>
        <time>2016-01-09T14:09:33Z</time>
      </trkpt>
      <trkpt lat="48.29472" lon="6.82911">
        <ele>577.89</ele>
        <time>2016-01-09T14:09:34Z</time>
      </trkpt>
      <trkpt lat="48.29472" lon="6.82915">
        <ele>576.45</ele>
        <time>2016-01-09T14:09:36Z</time>
      </trkpt>
      <trkpt lat="48.29472" lon="6.82918">
        <ele>570.68</ele>
        <time>2016-01-09T14:09:38Z</time>
      </trkpt>
      <trkpt lat="48.29472" lon="6.82919">
        <ele>579.81</ele>
        <time>2016-01-09T14:09:39Z</time>
      </trkpt>
      <trkpt lat="48.29473" lon="6.82923">
        <ele>576.93</ele>
        <time>2016-01-09T14:09:41Z</time>
      </trkpt>
      <trkpt lat="48.29475" lon="6.82925">
        <ele>575.49</ele>
        <time>2016-01-09T14:09:44Z</time>
      </trkpt>
      <trkpt lat="48.29475" lon="6.82926">
        <ele>579.33</ele>
        <time>2016-01-09T14:09:45Z</time>
      </trkpt>
      <trkpt lat="48.29476" lon="6.82927">
        <ele>578.37</ele>
        <time>2016-01-09T14:09:46Z</time>
      </trkpt>
      <trkpt lat="48.29476" lon="6.82928">
        <ele>577.41</ele>
        <time>2016-01-09T14:09:48Z</time>
      </trkpt>
      <trkpt lat="48.29475" lon="6.82928">
        <ele>572.6</ele>
        <time>2016-01-09T14:10:03Z</time>
      </trkpt>
      <trkpt lat="48.29475" lon="6.82928">
        <ele>577.41</ele>
        <time>2016-01-09T14:10:04Z</time>
      </trkpt>
      <trkpt lat="48.29475" lon="6.82929">
        <ele>573.08</ele>
        <time>2016-01-09T14:10:08Z</time>
      </trkpt>
      <trkpt lat="48.29475" lon="6.82929">
        <ele>577.89</ele>
        <time>2016-01-09T14:10:10Z</time>
      </trkpt>
      <trkpt lat="48.29475" lon="6.82931">
        <ele>574.53</ele>
        <time>2016-01-09T14:10:21Z</time>
      </trkpt>
      <trkpt lat="48.29474" lon="6.82931">
        <ele>578.85</ele>
        <time>2016-01-09T14:10:23Z</time>
      </trkpt>
      <trkpt lat="48.29474" lon="6.82931">
        <ele>573.56</ele>
        <time>2016-01-09T14:10:24Z</time>
      </trkpt>
      <trkpt lat="48.29474" lon="6.82931">
        <ele>576.93</ele>
        <time>2016-01-09T14:10:25Z</time>
      </trkpt>
      <trkpt lat="48.29474" lon="6.82931">
        <ele>574.04</ele>
        <time>2016-01-09T14:10:26Z</time>
      </trkpt>
      <trkpt lat="48.29474" lon="6.82931">
        <ele>577.41</ele>
        <time>2016-01-09T14:10:27Z</time>
      </trkpt>
      <trkpt lat="48.29474" lon="6.82931">
        <ele>570.68</ele>
        <time>2016-01-09T14:10:29Z</time>
      </trkpt>
      <trkpt lat="48.29474" lon="6.82931">
        <ele>577.41</ele>
        <time>2016-01-09T14:10:30Z</time>
      </trkpt>
      <trkpt lat="48.29474" lon="6.82931">
        <ele>573.08</ele>
        <time>2016-01-09T14:10:36Z</time>
      </trkpt>
      <trkpt lat="48.29474" lon="6.82931">
        <ele>578.37</ele>
        <time>2016-01-09T14:10:37Z</time>
      </trkpt>
      <trkpt lat="48.29475" lon="6.82931">
        <ele>569.24</ele>
        <time>2016-01-09T14:10:44Z</time>
      </trkpt>
      <trkpt lat="48.29475" lon="6.82931">
        <ele>576.93</ele>
        <time>2016-01-09T14:10:45Z</time>
      </trkpt>
      <trkpt lat="48.29474" lon="6.82937">
        <ele>580.77</ele>
        <time>2016-01-09T14:11:02Z</time>
      </trkpt>
      <trkpt lat="48.29474" lon="6.82938">
        <ele>577.41</ele>
        <time>2016-01-09T14:11:03Z</time>
      </trkpt>
      <trkpt lat="48.29473" lon="6.8294">
        <ele>580.77</ele>
        <time>2016-01-09T14:11:08Z</time>
      </trkpt>
      <trkpt lat="48.29473" lon="6.8294">
        <ele>570.68</ele>
        <time>2016-01-09T14:11:10Z</time>
      </trkpt>
      <trkpt lat="48.29473" lon="6.8294">
        <ele>573.08</ele>
        <time>2016-01-09T14:11:11Z</time>
      </trkpt>
      <trkpt lat="48.29474" lon="6.8294">
        <ele>577.41</ele>
        <time>2016-01-09T14:11:12Z</time>
      </trkpt>
      <trkpt lat="48.29474" lon="6.8294">
        <ele>576.93</ele>
        <time>2016-01-09T14:11:13Z</time>
      </trkpt>
      <trkpt lat="48.29474" lon="6.8294">
        <ele>580.77</ele>
        <time>2016-01-09T14:11:14Z</time>
      </trkpt>
      <trkpt lat="48.29474" lon="6.8294">
        <ele>574.04</ele>
        <time>2016-01-09T14:11:15Z</time>
      </trkpt>
      <trkpt lat="48.29474" lon="6.8294">
        <ele>578.37</ele>
        <time>2016-01-09T14:11:19Z</time>
      </trkpt>
      <trkpt lat="48.29474" lon="6.8294">
        <ele>577.89</ele>
        <time>2016-01-09T14:11:20Z</time>
      </trkpt>
      <trkpt lat="48.29474" lon="6.8294">
        <ele>576.45</ele>
        <time>2016-01-09T14:11:24Z</time>
      </trkpt>
      <trkpt lat="48.29475" lon="6.8294">
        <ele>570.68</ele>
        <time>2016-01-09T14:11:26Z</time>
      </trkpt>
      <trkpt lat="48.29475" lon="6.8294">
        <ele>577.41</ele>
        <time>2016-01-09T14:11:27Z</time>
      </trkpt>
      <trkpt lat="48.29475" lon="6.82941">
        <ele>569.72</ele>
        <time>2016-01-09T14:11:31Z</time>
      </trkpt>
      <trkpt lat="48.29475" lon="6.82941">
        <ele>577.89</ele>
        <time>2016-01-09T14:11:32Z</time>
      </trkpt>
      <trkpt lat="48.29475" lon="6.82941">
        <ele>580.77</ele>
        <time>2016-01-09T14:11:33Z</time>
      </trkpt>
      <trkpt lat="48.29475" lon="6.8294">
        <ele>576.93</ele>
        <time>2016-01-09T14:11:34Z</time>
      </trkpt>
      <trkpt lat="48.29475" lon="6.8294">
        <ele>572.12</ele>
        <time>2016-01-09T14:11:36Z</time>
      </trkpt>
      <trkpt lat="48.29475" lon="6.8294">
        <ele>578.37</ele>
        <time>2016-01-09T14:11:37Z</time>
      </trkpt>
      <trkpt lat="48.29475" lon="6.8294">
        <ele>568.76</ele>
        <time>2016-01-09T14:11:41Z</time>
      </trkpt>
      <trkpt lat="48.29475" lon="6.8294">
        <ele>577.41</ele>
        <time>2016-01-09T14:11:42Z</time>
      </trkpt>
      <trkpt lat="48.29475" lon="6.8294">
        <ele>570.2</ele>
        <time>2016-01-09T14:11:44Z</time>
      </trkpt>
      <trkpt lat="48.29475" lon="6.8294">
        <ele>576.45</ele>
        <time>2016-01-09T14:11:45Z</time>
      </trkpt>
      <trkpt lat="48.29475" lon="6.8294">
        <ele>576.45</ele>
        <time>2016-01-09T14:11:49Z</time>
      </trkpt>
      <trkpt lat="48.29475" lon="6.8294">
        <ele>579.81</ele>
        <time>2016-01-09T14:11:50Z</time>
      </trkpt>
      <trkpt lat="48.29475" lon="6.8294">
        <ele>572.6</ele>
        <time>2016-01-09T14:11:52Z</time>
      </trkpt>
      <trkpt lat="48.29475" lon="6.8294">
        <ele>581.73</ele>
        <time>2016-01-09T14:11:53Z</time>
      </trkpt>
      <trkpt lat="48.29475" lon="6.8294">
        <ele>581.73</ele>
        <time>2016-01-09T14:11:54Z</time>
      </trkpt>
      <trkpt lat="48.29475" lon="6.8294">
        <ele>577.89</ele>
        <time>2016-01-09T14:11:56Z</time>
      </trkpt>
      <trkpt lat="48.29475" lon="6.8294">
        <ele>574.04</ele>
        <time>2016-01-09T14:11:59Z</time>
      </trkpt>
      <trkpt lat="48.29475" lon="6.8294">
        <ele>577.89</ele>
        <time>2016-01-09T14:12:00Z</time>
      </trkpt>
      <trkpt lat="48.29475" lon="6.8294">
        <ele>574.53</ele>
        <time>2016-01-09T14:12:03Z</time>
      </trkpt>
      <trkpt lat="48.29475" lon="6.8294">
        <ele>577.89</ele>
        <time>2016-01-09T14:12:04Z</time>
      </trkpt>
      <trkpt lat="48.29474" lon="6.82941">
        <ele>572.12</ele>
        <time>2016-01-09T14:12:13Z</time>
      </trkpt>
      <trkpt lat="48.29474" lon="6.82941">
        <ele>572.6</ele>
        <time>2016-01-09T14:12:14Z</time>
      </trkpt>
      <trkpt lat="48.29474" lon="6.82941">
        <ele>580.77</ele>
        <time>2016-01-09T14:12:18Z</time>
      </trkpt>
      <trkpt lat="48.29474" lon="6.82941">
        <ele>571.64</ele>
        <time>2016-01-09T14:12:19Z</time>
      </trkpt>
      <trkpt lat="48.29474" lon="6.82941">
        <ele>577.41</ele>
        <time>2016-01-09T14:12:20Z</time>
      </trkpt>
      <trkpt lat="48.29475" lon="6.82939">
        <ele>573.08</ele>
        <time>2016-01-09T14:12:24Z</time>
      </trkpt>
      <trkpt lat="48.29475" lon="6.82938">
        <ele>576.45</ele>
        <time>2016-01-09T14:12:25Z</time>
      </trkpt>
      <trkpt lat="48.29476" lon="6.82936">
        <ele>571.16</ele>
        <time>2016-01-09T14:12:27Z</time>
      </trkpt>
      <trkpt lat="48.29476" lon="6.82935">
        <ele>579.33</ele>
        <time>2016-01-09T14:12:28Z</time>
      </trkpt>
      <trkpt lat="48.29477" lon="6.82933">
        <ele>583.18</ele>
        <time>2016-01-09T14:12:29Z</time>
      </trkpt>
      <trkpt lat="48.29477" lon="6.82932">
        <ele>577.41</ele>
        <time>2016-01-09T14:12:30Z</time>
      </trkpt>
      <trkpt lat="48.29478" lon="6.8293">
        <ele>581.25</ele>
        <time>2016-01-09T14:12:31Z</time>
      </trkpt>
      <trkpt lat="48.29478" lon="6.82929">
        <ele>574.53</ele>
        <time>2016-01-09T14:12:32Z</time>
      </trkpt>
      <trkpt lat="48.29481" lon="6.82918">
        <ele>583.18</ele>
        <time>2016-01-09T14:12:38Z</time>
      </trkpt>
      <trkpt lat="48.29481" lon="6.82916">
        <ele>578.85</ele>
        <time>2016-01-09T14:12:39Z</time>
      </trkpt>
      <trkpt lat="48.29483" lon="6.82911">
        <ele>575.49</ele>
        <time>2016-01-09T14:12:42Z</time>
      </trkpt>
      <trkpt lat="48.29483" lon="6.82909">
        <ele>579.81</ele>
        <time>2016-01-09T14:12:43Z</time>
      </trkpt>
      <trkpt lat="48.29484" lon="6.82903">
        <ele>575.01</ele>
        <time>2016-01-09T14:12:46Z</time>
      </trkpt>
      <trkpt lat="48.29485" lon="6.82902">
        <ele>575.49</ele>
        <time>2016-01-09T14:12:47Z</time>
      </trkpt>
      <trkpt lat="48.29486" lon="6.829">
        <ele>579.33</ele>
        <time>2016-01-09T14:12:48Z</time>
      </trkpt>
      <trkpt lat="48.29487" lon="6.82898">
        <ele>578.85</ele>
        <time>2016-01-09T14:12:50Z</time>
      </trkpt>
      <trkpt lat="48.29488" lon="6.82894">
        <ele>578.85</ele>
        <time>2016-01-09T14:12:52Z</time>
      </trkpt>
      <trkpt lat="48.29496" lon="6.82868">
        <ele>579.33</ele>
        <time>2016-01-09T14:13:07Z</time>
      </trkpt>
      <trkpt lat="48.29498" lon="6.82861">
        <ele>579.33</ele>
        <time>2016-01-09T14:13:11Z</time>
      </trkpt>
      <trkpt lat="48.29504" lon="6.82839">
        <ele>579.81</ele>
        <time>2016-01-09T14:13:23Z</time>
      </trkpt>
      <trkpt lat="48.29506" lon="6.8283">
        <ele>580.29</ele>
        <time>2016-01-09T14:13:27Z</time>
      </trkpt>
      <trkpt lat="48.2951" lon="6.82797">
        <ele>580.29</ele>
        <time>2016-01-09T14:13:41Z</time>
      </trkpt>
      <trkpt lat="48.29512" lon="6.82776">
        <ele>580.29</ele>
        <time>2016-01-09T14:13:51Z</time>
      </trkpt>
      <trkpt lat="48.29519" lon="6.82741">
        <ele>579.81</ele>
        <time>2016-01-09T14:14:06Z</time>
      </trkpt>
      <trkpt lat="48.29524" lon="6.82728">
        <ele>579.81</ele>
        <time>2016-01-09T14:14:12Z</time>
      </trkpt>
      <trkpt lat="48.29527" lon="6.82713">
        <ele>579.81</ele>
        <time>2016-01-09T14:14:18Z</time>
      </trkpt>
      <trkpt lat="48.29528" lon="6.82708">
        <ele>574.53</ele>
        <time>2016-01-09T14:14:21Z</time>
      </trkpt>
      <trkpt lat="48.29528" lon="6.82706">
        <ele>581.73</ele>
        <time>2016-01-09T14:14:22Z</time>
      </trkpt>
      <trkpt lat="48.29528" lon="6.82702">
        <ele>583.18</ele>
        <time>2016-01-09T14:14:24Z</time>
      </trkpt>
      <trkpt lat="48.29528" lon="6.82698">
        <ele>574.04</ele>
        <time>2016-01-09T14:14:26Z</time>
      </trkpt>
      <trkpt lat="48.29528" lon="6.82696">
        <ele>579.81</ele>
        <time>2016-01-09T14:14:27Z</time>
      </trkpt>
      <trkpt lat="48.29528" lon="6.82695">
        <ele>570.2</ele>
        <time>2016-01-09T14:14:28Z</time>
      </trkpt>
      <trkpt lat="48.29528" lon="6.82694">
        <ele>574.53</ele>
        <time>2016-01-09T14:14:29Z</time>
      </trkpt>
      <trkpt lat="48.29527" lon="6.82691">
        <ele>582.22</ele>
        <time>2016-01-09T14:14:31Z</time>
      </trkpt>
      <trkpt lat="48.29527" lon="6.82689">
        <ele>575.01</ele>
        <time>2016-01-09T14:14:32Z</time>
      </trkpt>
      <trkpt lat="48.29526" lon="6.82687">
        <ele>584.62</ele>
        <time>2016-01-09T14:14:33Z</time>
      </trkpt>
      <trkpt lat="48.29526" lon="6.82685">
        <ele>577.89</ele>
        <time>2016-01-09T14:14:34Z</time>
      </trkpt>
      <trkpt lat="48.29526" lon="6.82683">
        <ele>582.22</ele>
        <time>2016-01-09T14:14:35Z</time>
      </trkpt>
      <trkpt lat="48.29526" lon="6.82679">
        <ele>578.37</ele>
        <time>2016-01-09T14:14:37Z</time>
      </trkpt>
      <trkpt lat="48.29526" lon="6.82677">
        <ele>584.62</ele>
        <time>2016-01-09T14:14:38Z</time>
      </trkpt>
      <trkpt lat="48.29526" lon="6.82675">
        <ele>583.66</ele>
        <time>2016-01-09T14:14:39Z</time>
      </trkpt>
      <trkpt lat="48.29528" lon="6.82662">
        <ele>580.29</ele>
        <time>2016-01-09T14:14:45Z</time>
      </trkpt>
      <trkpt lat="48.29529" lon="6.82658">
        <ele>583.66</ele>
        <time>2016-01-09T14:14:48Z</time>
      </trkpt>
      <trkpt lat="48.2953" lon="6.82657">
        <ele>584.62</ele>
        <time>2016-01-09T14:14:49Z</time>
      </trkpt>
      <trkpt lat="48.29531" lon="6.82654">
        <ele>581.25</ele>
        <time>2016-01-09T14:14:51Z</time>
      </trkpt>
      <trkpt lat="48.29532" lon="6.82652">
        <ele>584.62</ele>
        <time>2016-01-09T14:14:52Z</time>
      </trkpt>
      <trkpt lat="48.29533" lon="6.82649">
        <ele>574.53</ele>
        <time>2016-01-09T14:14:54Z</time>
      </trkpt>
      <trkpt lat="48.29534" lon="6.82648">
        <ele>582.22</ele>
        <time>2016-01-09T14:14:55Z</time>
      </trkpt>
      <trkpt lat="48.29536" lon="6.82645">
        <ele>587.02</ele>
        <time>2016-01-09T14:14:57Z</time>
      </trkpt>
      <trkpt lat="48.29536" lon="6.82643">
        <ele>585.58</ele>
        <time>2016-01-09T14:14:58Z</time>
      </trkpt>
      <trkpt lat="48.29537" lon="6.82641">
        <ele>581.73</ele>
        <time>2016-01-09T14:14:59Z</time>
      </trkpt>
      <trkpt lat="48.29537" lon="6.82639">
        <ele>581.73</ele>
        <time>2016-01-09T14:15:00Z</time>
      </trkpt>
      <trkpt lat="48.2954" lon="6.82628">
        <ele>574.53</ele>
        <time>2016-01-09T14:15:06Z</time>
      </trkpt>
      <trkpt lat="48.29541" lon="6.82626">
        <ele>577.89</ele>
        <time>2016-01-09T14:15:07Z</time>
      </trkpt>
      <trkpt lat="48.29542" lon="6.82625">
        <ele>585.58</ele>
        <time>2016-01-09T14:15:08Z</time>
      </trkpt>
      <trkpt lat="48.29542" lon="6.82623">
        <ele>583.18</ele>
        <time>2016-01-09T14:15:09Z</time>
      </trkpt>
      <trkpt lat="48.29545" lon="6.82619">
        <ele>577.41</ele>
        <time>2016-01-09T14:15:12Z</time>
      </trkpt>
      <trkpt lat="48.29546" lon="6.82618">
        <ele>583.18</ele>
        <time>2016-01-09T14:15:13Z</time>
      </trkpt>
      <trkpt lat="48.29548" lon="6.82614">
        <ele>584.14</ele>
        <time>2016-01-09T14:15:16Z</time>
      </trkpt>
      <trkpt lat="48.2955" lon="6.8261">
        <ele>573.08</ele>
        <time>2016-01-09T14:15:18Z</time>
      </trkpt>
      <trkpt lat="48.2955" lon="6.82608">
        <ele>583.66</ele>
        <time>2016-01-09T14:15:19Z</time>
      </trkpt>
      <trkpt lat="48.29555" lon="6.826">
        <ele>583.18</ele>
        <time>2016-01-09T14:15:24Z</time>
      </trkpt>
      <trkpt lat="48.29559" lon="6.82594">
        <ele>586.54</ele>
        <time>2016-01-09T14:15:28Z</time>
      </trkpt>
      <trkpt lat="48.2956" lon="6.82593">
        <ele>580.29</ele>
        <time>2016-01-09T14:15:29Z</time>
      </trkpt>
      <trkpt lat="48.29561" lon="6.82591">
        <ele>584.14</ele>
        <time>2016-01-09T14:15:30Z</time>
      </trkpt>
      <trkpt lat="48.29567" lon="6.82575">
        <ele>587.5</ele>
        <time>2016-01-09T14:15:39Z</time>
      </trkpt>
      <trkpt lat="48.29568" lon="6.82572">
        <ele>581.25</ele>
        <time>2016-01-09T14:15:42Z</time>
      </trkpt>
      <trkpt lat="48.29568" lon="6.82571">
        <ele>583.66</ele>
        <time>2016-01-09T14:15:43Z</time>
      </trkpt>
      <trkpt lat="48.29568" lon="6.82569">
        <ele>586.06</ele>
        <time>2016-01-09T14:15:45Z</time>
      </trkpt>
      <trkpt lat="48.29569" lon="6.82568">
        <ele>582.7</ele>
        <time>2016-01-09T14:15:46Z</time>
      </trkpt>
      <trkpt lat="48.2957" lon="6.82568">
        <ele>583.66</ele>
        <time>2016-01-09T14:15:47Z</time>
      </trkpt>
      <trkpt lat="48.29571" lon="6.82566">
        <ele>587.02</ele>
        <time>2016-01-09T14:15:49Z</time>
      </trkpt>
      <trkpt lat="48.29571" lon="6.82565">
        <ele>586.54</ele>
        <time>2016-01-09T14:15:50Z</time>
      </trkpt>
      <trkpt lat="48.29582" lon="6.82548">
        <ele>588.95</ele>
        <time>2016-01-09T14:16:01Z</time>
      </trkpt>
      <trkpt lat="48.29591" lon="6.82544">
        <ele>590.39</ele>
        <time>2016-01-09T14:16:09Z</time>
      </trkpt>
      <trkpt lat="48.29598" lon="6.82538">
        <ele>590.87</ele>
        <time>2016-01-09T14:16:13Z</time>
      </trkpt>
      <trkpt lat="48.29606" lon="6.82528">
        <ele>591.83</ele>
        <time>2016-01-09T14:16:19Z</time>
      </trkpt>
      <trkpt lat="48.29611" lon="6.82525">
        <ele>592.79</ele>
        <time>2016-01-09T14:16:23Z</time>
      </trkpt>
      <trkpt lat="48.2962" lon="6.82511">
        <ele>592.31</ele>
        <time>2016-01-09T14:16:33Z</time>
      </trkpt>
      <trkpt lat="48.29621" lon="6.82507">
        <ele>592.31</ele>
        <time>2016-01-09T14:16:35Z</time>
      </trkpt>
      <trkpt lat="48.29632" lon="6.82486">
        <ele>592.79</ele>
        <time>2016-01-09T14:16:47Z</time>
      </trkpt>
      <trkpt lat="48.29632" lon="6.82482">
        <ele>592.79</ele>
        <time>2016-01-09T14:16:49Z</time>
      </trkpt>
      <trkpt lat="48.2963" lon="6.82458">
        <ele>588.95</ele>
        <time>2016-01-09T14:17:02Z</time>
      </trkpt>
      <trkpt lat="48.29629" lon="6.82457">
        <ele>593.27</ele>
        <time>2016-01-09T14:17:03Z</time>
      </trkpt>
      <trkpt lat="48.29629" lon="6.82456">
        <ele>590.39</ele>
        <time>2016-01-09T14:17:04Z</time>
      </trkpt>
      <trkpt lat="48.29628" lon="6.82455">
        <ele>594.71</ele>
        <time>2016-01-09T14:17:06Z</time>
      </trkpt>
      <trkpt lat="48.29629" lon="6.82454">
        <ele>588.46</ele>
        <time>2016-01-09T14:17:09Z</time>
      </trkpt>
      <trkpt lat="48.29629" lon="6.82452">
        <ele>585.58</ele>
        <time>2016-01-09T14:17:10Z</time>
      </trkpt>
      <trkpt lat="48.2963" lon="6.82451">
        <ele>592.31</ele>
        <time>2016-01-09T14:17:11Z</time>
      </trkpt>
      <trkpt lat="48.29631" lon="6.82448">
        <ele>583.66</ele>
        <time>2016-01-09T14:17:12Z</time>
      </trkpt>
      <trkpt lat="48.29631" lon="6.82446">
        <ele>592.79</ele>
        <time>2016-01-09T14:17:13Z</time>
      </trkpt>
      <trkpt lat="48.29632" lon="6.82442">
        <ele>584.62</ele>
        <time>2016-01-09T14:17:15Z</time>
      </trkpt>
      <trkpt lat="48.29633" lon="6.8244">
        <ele>592.79</ele>
        <time>2016-01-09T14:17:16Z</time>
      </trkpt>
      <trkpt lat="48.29634" lon="6.82436">
        <ele>586.06</ele>
        <time>2016-01-09T14:17:18Z</time>
      </trkpt>
      <trkpt lat="48.29635" lon="6.82434">
        <ele>593.27</ele>
        <time>2016-01-09T14:17:19Z</time>
      </trkpt>
      <trkpt lat="48.29636" lon="6.82431">
        <ele>589.43</ele>
        <time>2016-01-09T14:17:21Z</time>
      </trkpt>
      <trkpt lat="48.29637" lon="6.82429">
        <ele>591.35</ele>
        <time>2016-01-09T14:17:22Z</time>
      </trkpt>
      <trkpt lat="48.29638" lon="6.82423">
        <ele>592.31</ele>
        <time>2016-01-09T14:17:24Z</time>
      </trkpt>
      <trkpt lat="48.29638" lon="6.8242">
        <ele>592.79</ele>
        <time>2016-01-09T14:17:25Z</time>
      </trkpt>
      <trkpt lat="48.29642" lon="6.82407">
        <ele>592.31</ele>
        <time>2016-01-09T14:17:29Z</time>
      </trkpt>
      <trkpt lat="48.29644" lon="6.82404">
        <ele>592.31</ele>
        <time>2016-01-09T14:17:31Z</time>
      </trkpt>
      <trkpt lat="48.29653" lon="6.82375">
        <ele>590.87</ele>
        <time>2016-01-09T14:17:46Z</time>
      </trkpt>
      <trkpt lat="48.29657" lon="6.82352">
        <ele>590.87</ele>
        <time>2016-01-09T14:17:58Z</time>
      </trkpt>
      <trkpt lat="48.29655" lon="6.82342">
        <ele>590.87</ele>
        <time>2016-01-09T14:18:04Z</time>
      </trkpt>
      <trkpt lat="48.29655" lon="6.82337">
        <ele>589.91</ele>
        <time>2016-01-09T14:18:06Z</time>
      </trkpt>
      <trkpt lat="48.29657" lon="6.82325">
        <ele>589.91</ele>
        <time>2016-01-09T14:18:11Z</time>
      </trkpt>
      <trkpt lat="48.29658" lon="6.82317">
        <ele>589.43</ele>
        <time>2016-01-09T14:18:14Z</time>
      </trkpt>
      <trkpt lat="48.29665" lon="6.82295">
        <ele>585.58</ele>
        <time>2016-01-09T14:18:24Z</time>
      </trkpt>
      <trkpt lat="48.29667" lon="6.82287">
        <ele>585.58</ele>
        <time>2016-01-09T14:18:40Z</time>
      </trkpt>
      <trkpt lat="48.29667" lon="6.82286">
        <ele>588.46</ele>
        <time>2016-01-09T14:18:42Z</time>
      </trkpt>
      <trkpt lat="48.29667" lon="6.82286">
        <ele>581.25</ele>
        <time>2016-01-09T14:18:47Z</time>
      </trkpt>
      <trkpt lat="48.29667" lon="6.82286">
        <ele>587.5</ele>
        <time>2016-01-09T14:18:48Z</time>
      </trkpt>
      <trkpt lat="48.29667" lon="6.82286">
        <ele>584.14</ele>
        <time>2016-01-09T14:18:49Z</time>
      </trkpt>
      <trkpt lat="48.29667" lon="6.82286">
        <ele>587.5</ele>
        <time>2016-01-09T14:18:51Z</time>
      </trkpt>
      <trkpt lat="48.29667" lon="6.82286">
        <ele>582.7</ele>
        <time>2016-01-09T14:18:52Z</time>
      </trkpt>
      <trkpt lat="48.29667" lon="6.82286">
        <ele>586.06</ele>
        <time>2016-01-09T14:18:53Z</time>
      </trkpt>
      <trkpt lat="48.29667" lon="6.82287">
        <ele>592.31</ele>
        <time>2016-01-09T14:19:08Z</time>
      </trkpt>
      <trkpt lat="48.29667" lon="6.82287">
        <ele>583.18</ele>
        <time>2016-01-09T14:19:09Z</time>
      </trkpt>
      <trkpt lat="48.29667" lon="6.82287">
        <ele>587.98</ele>
        <time>2016-01-09T14:19:10Z</time>
      </trkpt>
      <trkpt lat="48.29667" lon="6.82287">
        <ele>584.62</ele>
        <time>2016-01-09T14:19:11Z</time>
      </trkpt>
      <trkpt lat="48.29667" lon="6.82287">
        <ele>588.95</ele>
        <time>2016-01-09T14:19:14Z</time>
      </trkpt>
      <trkpt lat="48.29667" lon="6.82287">
        <ele>584.62</ele>
        <time>2016-01-09T14:19:15Z</time>
      </trkpt>
      <trkpt lat="48.29667" lon="6.82287">
        <ele>588.95</ele>
        <time>2016-01-09T14:19:18Z</time>
      </trkpt>
      <trkpt lat="48.29668" lon="6.8228">
        <ele>585.58</ele>
        <time>2016-01-09T14:19:23Z</time>
      </trkpt>
      <trkpt lat="48.29669" lon="6.82279">
        <ele>585.1</ele>
        <time>2016-01-09T14:19:24Z</time>
      </trkpt>
      <trkpt lat="48.29671" lon="6.82272">
        <ele>584.62</ele>
        <time>2016-01-09T14:19:29Z</time>
      </trkpt>
      <trkpt lat="48.29668" lon="6.82248">
        <ele>581.25</ele>
        <time>2016-01-09T14:19:43Z</time>
      </trkpt>
      <trkpt lat="48.29668" lon="6.82235">
        <ele>578.85</ele>
        <time>2016-01-09T14:19:50Z</time>
      </trkpt>
      <trkpt lat="48.29669" lon="6.82226">
        <ele>577.41</ele>
        <time>2016-01-09T14:19:55Z</time>
      </trkpt>
      <trkpt lat="48.2967" lon="6.8222">
        <ele>575.97</ele>
        <time>2016-01-09T14:19:58Z</time>
      </trkpt>
      <trkpt lat="48.29674" lon="6.82204">
        <ele>572.6</ele>
        <time>2016-01-09T14:20:07Z</time>
      </trkpt>
      <trkpt lat="48.29674" lon="6.82202">
        <ele>572.6</ele>
        <time>2016-01-09T14:20:08Z</time>
      </trkpt>
      <trkpt lat="48.29677" lon="6.82194">
        <ele>571.16</ele>
        <time>2016-01-09T14:20:12Z</time>
      </trkpt>
      <trkpt lat="48.29676" lon="6.82189">
        <ele>569.72</ele>
        <time>2016-01-09T14:20:16Z</time>
      </trkpt>
      <trkpt lat="48.29676" lon="6.82174">
        <ele>566.35</ele>
        <time>2016-01-09T14:20:26Z</time>
      </trkpt>
      <trkpt lat="48.29678" lon="6.8216">
        <ele>563.47</ele>
        <time>2016-01-09T14:20:35Z</time>
      </trkpt>
      <trkpt lat="48.29678" lon="6.82144">
        <ele>559.62</ele>
        <time>2016-01-09T14:20:46Z</time>
      </trkpt>
      <trkpt lat="48.29679" lon="6.82135">
        <ele>558.18</ele>
        <time>2016-01-09T14:20:52Z</time>
      </trkpt>
      <trkpt lat="48.2968" lon="6.82119">
        <ele>554.82</ele>
        <time>2016-01-09T14:21:02Z</time>
      </trkpt>
      <trkpt lat="48.29681" lon="6.82116">
        <ele>553.86</ele>
        <time>2016-01-09T14:21:06Z</time>
      </trkpt>
      <trkpt lat="48.29681" lon="6.82114">
        <ele>553.86</ele>
        <time>2016-01-09T14:21:07Z</time>
      </trkpt>
      <trkpt lat="48.29682" lon="6.82103">
        <ele>551.93</ele>
        <time>2016-01-09T14:21:14Z</time>
      </trkpt>
      <trkpt lat="48.29682" lon="6.82096">
        <ele>550.49</ele>
        <time>2016-01-09T14:21:19Z</time>
      </trkpt>
      <trkpt lat="48.29679" lon="6.82083">
        <ele>548.09</ele>
        <time>2016-01-09T14:21:29Z</time>
      </trkpt>
      <trkpt lat="48.2968" lon="6.82073">
        <ele>545.69</ele>
        <time>2016-01-09T14:21:37Z</time>
      </trkpt>
      <trkpt lat="48.29679" lon="6.82063">
        <ele>543.28</ele>
        <time>2016-01-09T14:21:47Z</time>
      </trkpt>
      <trkpt lat="48.29683" lon="6.82047">
        <ele>539.44</ele>
        <time>2016-01-09T14:22:00Z</time>
      </trkpt>
      <trkpt lat="48.29683" lon="6.82046">
        <ele>538.96</ele>
        <time>2016-01-09T14:22:01Z</time>
      </trkpt>
      <trkpt lat="48.29685" lon="6.82029">
        <ele>536.07</ele>
        <time>2016-01-09T14:22:12Z</time>
      </trkpt>
      <trkpt lat="48.29687" lon="6.82004">
        <ele>532.23</ele>
        <time>2016-01-09T14:22:26Z</time>
      </trkpt>
      <trkpt lat="48.2969" lon="6.81991">
        <ele>529.82</ele>
        <time>2016-01-09T14:22:37Z</time>
      </trkpt>
      <trkpt lat="48.29692" lon="6.81986">
        <ele>528.86</ele>
        <time>2016-01-09T14:22:40Z</time>
      </trkpt>
      <trkpt lat="48.29697" lon="6.81964">
        <ele>525.5</ele>
        <time>2016-01-09T14:22:51Z</time>
      </trkpt>
      <trkpt lat="48.297" lon="6.81953">
        <ele>522.13</ele>
        <time>2016-01-09T14:23:02Z</time>
      </trkpt>
      <trkpt lat="48.297" lon="6.81951">
        <ele>521.65</ele>
        <time>2016-01-09T14:23:06Z</time>
      </trkpt>
      <trkpt lat="48.29702" lon="6.81944">
        <ele>520.69</ele>
        <time>2016-01-09T14:23:12Z</time>
      </trkpt>
      <trkpt lat="48.29707" lon="6.81928">
        <ele>516.37</ele>
        <time>2016-01-09T14:23:22Z</time>
      </trkpt>
      <trkpt lat="48.29711" lon="6.81918">
        <ele>514.92</ele>
        <time>2016-01-09T14:23:30Z</time>
      </trkpt>
      <trkpt lat="48.29714" lon="6.81908">
        <ele>513.96</ele>
        <time>2016-01-09T14:23:36Z</time>
      </trkpt>
      <trkpt lat="48.2971" lon="6.81891">
        <ele>513</ele>
        <time>2016-01-09T14:23:46Z</time>
      </trkpt>
      <trkpt lat="48.29713" lon="6.81877">
        <ele>511.56</ele>
        <time>2016-01-09T14:23:58Z</time>
      </trkpt>
      <trkpt lat="48.29713" lon="6.81877">
        <ele>510.12</ele>
        <time>2016-01-09T14:24:15Z</time>
      </trkpt>
      <trkpt lat="48.29717" lon="6.81868">
        <ele>508.19</ele>
        <time>2016-01-09T14:24:33Z</time>
      </trkpt>
      <trkpt lat="48.29727" lon="6.81867">
        <ele>506.27</ele>
        <time>2016-01-09T14:24:46Z</time>
      </trkpt>
      <trkpt lat="48.2973" lon="6.81869">
        <ele>504.35</ele>
        <time>2016-01-09T14:25:01Z</time>
      </trkpt>
      <trkpt lat="48.29731" lon="6.81864">
        <ele>503.39</ele>
        <time>2016-01-09T14:25:14Z</time>
      </trkpt>
      <trkpt lat="48.2973" lon="6.81864">
        <ele>501.95</ele>
        <time>2016-01-09T14:25:20Z</time>
      </trkpt>
      <trkpt lat="48.29731" lon="6.81863">
        <ele>502.43</ele>
        <time>2016-01-09T14:25:25Z</time>
      </trkpt>
      <trkpt lat="48.29731" lon="6.81863">
        <ele>506.27</ele>
        <time>2016-01-09T14:25:27Z</time>
      </trkpt>
      <trkpt lat="48.29731" lon="6.81863">
        <ele>502.91</ele>
        <time>2016-01-09T14:25:29Z</time>
      </trkpt>
      <trkpt lat="48.29731" lon="6.81863">
        <ele>503.87</ele>
        <time>2016-01-09T14:25:30Z</time>
      </trkpt>
      <trkpt lat="48.29731" lon="6.81863">
        <ele>506.75</ele>
        <time>2016-01-09T14:25:33Z</time>
      </trkpt>
      <trkpt lat="48.29732" lon="6.81863">
        <ele>502.91</ele>
        <time>2016-01-09T14:25:36Z</time>
      </trkpt>
      <trkpt lat="48.29733" lon="6.81864">
        <ele>505.79</ele>
        <time>2016-01-09T14:25:42Z</time>
      </trkpt>
      <trkpt lat="48.29734" lon="6.8186">
        <ele>502.43</ele>
        <time>2016-01-09T14:25:52Z</time>
      </trkpt>
      <trkpt lat="48.29734" lon="6.81859">
        <ele>502.43</ele>
        <time>2016-01-09T14:25:53Z</time>
      </trkpt>
      <trkpt lat="48.29737" lon="6.8185">
        <ele>499.06</ele>
        <time>2016-01-09T14:26:07Z</time>
      </trkpt>
      <trkpt lat="48.29743" lon="6.81841">
        <ele>497.62</ele>
        <time>2016-01-09T14:26:18Z</time>
      </trkpt>
      <trkpt lat="48.29743" lon="6.81841">
        <ele>496.66</ele>
        <time>2016-01-09T14:26:20Z</time>
      </trkpt>
      <trkpt lat="48.29746" lon="6.81829">
        <ele>496.18</ele>
        <time>2016-01-09T14:26:33Z</time>
      </trkpt>
      <trkpt lat="48.29748" lon="6.81815">
        <ele>497.14</ele>
        <time>2016-01-09T14:26:45Z</time>
      </trkpt>
      <trkpt lat="48.29753" lon="6.81791">
        <ele>495.7</ele>
        <time>2016-01-09T14:26:58Z</time>
      </trkpt>
      <trkpt lat="48.29759" lon="6.81776">
        <ele>493.77</ele>
        <time>2016-01-09T14:27:11Z</time>
      </trkpt>
      <trkpt lat="48.29769" lon="6.81751">
        <ele>490.89</ele>
        <time>2016-01-09T14:27:27Z</time>
      </trkpt>
      <trkpt lat="48.29774" lon="6.81739">
        <ele>488.01</ele>
        <time>2016-01-09T14:27:38Z</time>
      </trkpt>
      <trkpt lat="48.29776" lon="6.81731">
        <ele>486.56</ele>
        <time>2016-01-09T14:27:53Z</time>
      </trkpt>
      <trkpt lat="48.29777" lon="6.81729">
        <ele>487.53</ele>
        <time>2016-01-09T14:28:10Z</time>
      </trkpt>
      <trkpt lat="48.29776" lon="6.81729">
        <ele>486.56</ele>
        <time>2016-01-09T14:28:14Z</time>
      </trkpt>
      <trkpt lat="48.29775" lon="6.81715">
        <ele>485.6</ele>
        <time>2016-01-09T14:28:25Z</time>
      </trkpt>
      <trkpt lat="48.29774" lon="6.81704">
        <ele>484.16</ele>
        <time>2016-01-09T14:28:38Z</time>
      </trkpt>
      <trkpt lat="48.29775" lon="6.81696">
        <ele>485.12</ele>
        <time>2016-01-09T14:28:51Z</time>
      </trkpt>
      <trkpt lat="48.29776" lon="6.81694">
        <ele>484.64</ele>
        <time>2016-01-09T14:28:54Z</time>
      </trkpt>
      <trkpt lat="48.29786" lon="6.81685">
        <ele>481.28</ele>
        <time>2016-01-09T14:29:09Z</time>
      </trkpt>
      <trkpt lat="48.29788" lon="6.81682">
        <ele>478.87</ele>
        <time>2016-01-09T14:29:22Z</time>
      </trkpt>
      <trkpt lat="48.29789" lon="6.81678">
        <ele>478.39</ele>
        <time>2016-01-09T14:29:36Z</time>
      </trkpt>
      <trkpt lat="48.29793" lon="6.81677">
        <ele>477.43</ele>
        <time>2016-01-09T14:29:49Z</time>
      </trkpt>
      <trkpt lat="48.29794" lon="6.81676">
        <ele>477.91</ele>
        <time>2016-01-09T14:30:05Z</time>
      </trkpt>
      <trkpt lat="48.29795" lon="6.81669">
        <ele>476.47</ele>
        <time>2016-01-09T14:30:20Z</time>
      </trkpt>
      <trkpt lat="48.29795" lon="6.81659">
        <ele>476.47</ele>
        <time>2016-01-09T14:30:31Z</time>
      </trkpt>
      <trkpt lat="48.29796" lon="6.81656">
        <ele>474.55</ele>
        <time>2016-01-09T14:30:40Z</time>
      </trkpt>
      <trkpt lat="48.29798" lon="6.81651">
        <ele>472.63</ele>
        <time>2016-01-09T14:30:47Z</time>
      </trkpt>
      <trkpt lat="48.29801" lon="6.81648">
        <ele>472.14</ele>
        <time>2016-01-09T14:31:00Z</time>
      </trkpt>
      <trkpt lat="48.29805" lon="6.81642">
        <ele>472.63</ele>
        <time>2016-01-09T14:31:05Z</time>
      </trkpt>
      <trkpt lat="48.29807" lon="6.81622">
        <ele>469.26</ele>
        <time>2016-01-09T14:31:18Z</time>
      </trkpt>
      <trkpt lat="48.29808" lon="6.8162">
        <ele>469.26</ele>
        <time>2016-01-09T14:31:19Z</time>
      </trkpt>
      <trkpt lat="48.29812" lon="6.81608">
        <ele>465.9</ele>
        <time>2016-01-09T14:31:32Z</time>
      </trkpt>
      <trkpt lat="48.29813" lon="6.81607">
        <ele>463.49</ele>
        <time>2016-01-09T14:31:40Z</time>
      </trkpt>
      <trkpt lat="48.29817" lon="6.81603">
        <ele>463.49</ele>
        <time>2016-01-09T14:31:43Z</time>
      </trkpt>
      <trkpt lat="48.29819" lon="6.81595">
        <ele>461.57</ele>
        <time>2016-01-09T14:31:54Z</time>
      </trkpt>
      <trkpt lat="48.2982" lon="6.81584">
        <ele>459.17</ele>
        <time>2016-01-09T14:32:03Z</time>
      </trkpt>
      <trkpt lat="48.2982" lon="6.81576">
        <ele>458.69</ele>
        <time>2016-01-09T14:32:06Z</time>
      </trkpt>
      <trkpt lat="48.29824" lon="6.81572">
        <ele>457.72</ele>
        <time>2016-01-09T14:32:11Z</time>
      </trkpt>
      <trkpt lat="48.29828" lon="6.81562">
        <ele>453.88</ele>
        <time>2016-01-09T14:32:25Z</time>
      </trkpt>
      <trkpt lat="48.29831" lon="6.81558">
        <ele>454.36</ele>
        <time>2016-01-09T14:32:37Z</time>
      </trkpt>
      <trkpt lat="48.29832" lon="6.81554">
        <ele>453.4</ele>
        <time>2016-01-09T14:32:50Z</time>
      </trkpt>
      <trkpt lat="48.29834" lon="6.8155">
        <ele>450.52</ele>
        <time>2016-01-09T14:33:02Z</time>
      </trkpt>
      <trkpt lat="48.29835" lon="6.81546">
        <ele>447.63</ele>
        <time>2016-01-09T14:33:13Z</time>
      </trkpt>
      <trkpt lat="48.29835" lon="6.81545">
        <ele>447.15</ele>
        <time>2016-01-09T14:33:18Z</time>
      </trkpt>
      <trkpt lat="48.29839" lon="6.81543">
        <ele>445.71</ele>
        <time>2016-01-09T14:33:23Z</time>
      </trkpt>
      <trkpt lat="48.29844" lon="6.81538">
        <ele>444.27</ele>
        <time>2016-01-09T14:33:28Z</time>
      </trkpt>
      <trkpt lat="48.29849" lon="6.81525">
        <ele>441.86</ele>
        <time>2016-01-09T14:33:41Z</time>
      </trkpt>
      <trkpt lat="48.29852" lon="6.81522">
        <ele>439.94</ele>
        <time>2016-01-09T14:33:46Z</time>
      </trkpt>
      <trkpt lat="48.29856" lon="6.81519">
        <ele>441.86</ele>
        <time>2016-01-09T14:33:49Z</time>
      </trkpt>
      <trkpt lat="48.2986" lon="6.81517">
        <ele>439.46</ele>
        <time>2016-01-09T14:33:52Z</time>
      </trkpt>
      <trkpt lat="48.29867" lon="6.81502">
        <ele>438.5</ele>
        <time>2016-01-09T14:34:04Z</time>
      </trkpt>
      <trkpt lat="48.29868" lon="6.81498">
        <ele>436.58</ele>
        <time>2016-01-09T14:34:14Z</time>
      </trkpt>
      <trkpt lat="48.29872" lon="6.81486">
        <ele>431.77</ele>
        <time>2016-01-09T14:34:21Z</time>
      </trkpt>
      <trkpt lat="48.29877" lon="6.81481">
        <ele>432.25</ele>
        <time>2016-01-09T14:34:27Z</time>
      </trkpt>
      <trkpt lat="48.29877" lon="6.81481">
        <ele>436.1</ele>
        <time>2016-01-09T14:34:28Z</time>
      </trkpt>
      <trkpt lat="48.29879" lon="6.81482">
        <ele>431.77</ele>
        <time>2016-01-09T14:34:33Z</time>
      </trkpt>
      <trkpt lat="48.2988" lon="6.81483">
        <ele>436.1</ele>
        <time>2016-01-09T14:34:34Z</time>
      </trkpt>
      <trkpt lat="48.29883" lon="6.81484">
        <ele>440.42</ele>
        <time>2016-01-09T14:34:36Z</time>
      </trkpt>
      <trkpt lat="48.29884" lon="6.81484">
        <ele>435.61</ele>
        <time>2016-01-09T14:34:37Z</time>
      </trkpt>
    </trkseg>
  </trk>
</gpx>